(33) 110km Uomini/Herren 37-42 anni

Maratona dles Dolomites 2001 - (33) 110km Uomini/Herren 37-42 anni

attualizzato il 17.07.2001
 posto nome/Name            an località/Ort         squadra/Team                        tempo    ritardo    pett  assolute         km/h ¦  Passo Pordoi !      Corvara !   Campolongo !no Campolongo !    Falzarego !
---------------------------------------------------------------------------------------------------------------------------------------------------------------------------------------------------------------------
    1. Magnocavallo Riccard 64 Trento               Assos Team Bolzano              3:53.40,1      -----    (33)  M110     3.    28,245 ¦  1:01.14    1.! 2:03.09    1.! 2:19.50    2.!   16.40    2.! 3:19.46    2.!
    2. Sancisi Francesco    64 S.Vito di Rimini RN  Ciocc Racing Team               3:53.41,4     0.01,3  (7831)  M110     5.    28,242 ¦  1:01.17    2.! 2:03.11    2.! 2:19.47    1.!   16.35    1.! 3:19.45    1.!
    3. Neri Alberto         61 Empoli               Cross King Bike Empoli          3:54.40,2     1.00,1  (1811)  M110     8.    28,124 ¦  1:04.26    4.! 2:06.09    3.! 2:23.54    3.!   17.44    3.! 3:21.58    3.!
    4. Zironi Tiziano       64 Formigine            Ciclistica Amatoriale           4:00.54,6     7.14,5  (4645)  M110     15.   27,396 ¦  1:03.51    3.! 2:08.29    4.! 2:26.20    4.!   17.51    4.! 3:27.01    4.!
    5. Valdesalici Gianluca 61 Verona (VR)          Sport Alliance                  4:03.29,7     9.49,6   (838)  M110     22.   27,105 ¦  1:04.45    5.! 2:09.41    5.! 2:28.33    5.!   18.52    7.! 3:29.36    5.!
    6. Giordani Aliano      61 Lucca                SRM Team                        4:04.41,5    11.01,4  (4503)  M110     25.   26,972 ¦  1:05.17    6.! 2:11.34    6.! 2:30.49    6.!   19.14    8.! 3:30.27    6.!
    7. Greco Ferdinando     61 Carimate             MTB Carimate Conti Bikes        4:12.07,0    18.26,9   (893)  M110     41.   26,178 ¦  1:06.45    7.! 2:12.10    7.! 2:30.54    7.!   18.44    6.! 3:36.30    7.!
    8. Bacci Andrea         61 Bologna              TEam Guidi Bike 2000            4:15.17,4    21.37,3   (875)  M110     44.   25,852 ¦  1:10.58   13.! 2:18.33    9.! 2:37.59    9.!   19.26    9.! 3:41.03    8.!
    9. Possamai  Sante      63 Pieve di Soligo      SC Solighetto                   4:19.24,9    25.44,8  (7702)  M110     58.   25,441 ¦  1:12.37   19.! 2:20.20   13.! 2:40.30   14.!   20.09   14.! 3:44.29    9.!
   10. Sabatini Rinaldo     59 Massa e Cozzile      Avis Borgo a Buggiano           4:20.49,9    27.09,8   (718)  M110     63.   25,303 ¦  1:09.57   11.! 2:19.31   11.! 2:39.44   12.!   20.13   16.! 3:44.37   10.!
   11. Ledermaier Peter     61 A-Schwaz             PRO BIKE SCHWAZ                 4:22.01,9    28.21,8   (799)  M110     68.   25,187 ¦  1:11.20   14.! 2:21.11   15.! 2:43.08   16.!   21.57   46.! 3:46.29   12.!
   12. Ponchiroli Maurizio  59 Bergamo              SC Lissonesi Padani             4:23.14,0    29.33,9  (4113)  M110     72.   25,072 ¦  1:14.19   25.! 2:23.29   16.! 2:43.38   17.!   20.08   13.! 3:48.43   14.!
   13. Casalini Franco      63 Capannoli (PI)       Cicli Bertini                   4:23.43,0    30.02,9   (885)  M110     76.   25,026 ¦  1:08.45    9.! 2:19.56   12.! 2:40.26   13.!   20.29   21.! 3:46.28   11.!
   14. Rainer Eberhard      64 Antholz              Dolomiti Superbike              4:24.13,4    30.33,3  (1351)  M110     78.   24,978 ¦  1:08.40    8.! 2:18.59   10.! 2:39.20   11.!   20.20   18.! 3:46.58   13.!
   15. Garoia Marcello      64 Forlì (FO)           Re Artu Limonetti               4:26.10,5    32.30,4  (2664)  M110     91.   24,795 ¦  1:15.18   32.! 2:24.46   21.! 2:45.22   19.!   20.35   23.! 3:50.22   17.!
   16. Bernardi Guido       63 Solighetto (TV)      SC Solighetto 1919              4:26.15,2    32.35,1   (647)  M110     93.   24,788 ¦  1:10.13   12.! 2:21.07   14.! 2:42.01   15.!   20.54   24.! 3:49.48   15.!
   17. Perenzoni Renato     60 Rovereto (TN)        Ass Pol Lizzanella              4:26.27,6    32.47,5  (5414)  M110     94.   24,769 ¦  1:16.08   38.! 2:26.18   24.! 2:45.52   21.!   19.34   10.! 3:50.10   16.!
   18. Dietzel Gerd         59 D-Mühlheim am Main   RC Adler Mühlheim               4:27.05,2    33.25,1  (1364)  M110     98.   24,711 ¦  1:11.46   15.! 2:23.38   17.! 2:44.11   18.!   20.32   22.! 3:51.20   18.!
   19. Lualdi Paolo         64 Gorizia (GO)         GS All Star Gorizia             4:27.46,3    34.06,2  (2169)  M110     100.  24,647 ¦  1:17.31   47.! 2:28.48   36.! 2:49.13   29.!   20.25   20.! 3:52.43   21.!
   20. Maccalli Nicola      60 Crema                GC Di Grande Club               4:28.25,3    34.45,2   (730)  M110     103.  24,588 ¦  1:11.53   16.! 2:24.42   20.! 2:46.43   22.!   22.00   50.! 3:52.30   20.!
   21. Zinsser Achim        62 D                    Pinarello                       4:28.34,4    34.54,3  (1982)  M110     107.  24,574 ¦  1:20.10   69.! 2:32.09   47.! 2:50.38   37.!   18.29    5.! 3:52.17   19.!
   22. Rubini Andrea        59 Senigallia           Nuova Corti                     4:30.03,2    36.23,1  (1780)  M110     112.  24,439 ¦  1:14.02   23.! 2:25.39   22.! 2:47.26   25.!   21.46   42.! 3:55.27   27.!
   23. Cattaneo Marino      64 Carimate CO          MTB Carimate                    4:30.26,3    36.46,2   (886)  M110     113.  24,404 ¦  1:12.05   17.! 2:24.37   19.! 2:47.00   23.!   22.23   57.! 3:53.14   22.!
   24. Arduini Maurizio     60 Frosinone            GS La Ruota Gialloblú           4:31.06,1    37.26,0  (4308)  M110     116.  24,345 ¦  1:16.13   40.! 2:29.21   40.! 2:49.45   34.!   20.23   19.! 3:54.39   24.!
   25. Giorgi Renato        59 Cesenatico (FO)      Polisportiva Sala               4:31.48,5    38.08,4  (1370)  M110     118.  24,281 ¦  1:14.28   26.! 2:28.16   32.! 2:48.05   27.!   19.48   11.! 3:53.40   23.!
   26. Pancaldi Sandro      62 Funa                 Team Bertoldi Ciclissimo        4:32.26,7    38.46,6   (751)  M110     123.  24,225 ¦  1:12.52   20.! 2:26.06   23.! 2:47.05   24.!   20.58   25.! 3:55.26   26.!
   27. Dalrí Mauro          60 Mori                 Team Grandis                    4:32.34,5    38.54,4  (8331)  M110     124.  24,213 ¦  1:16.14   42.! 2:28.24   33.! 2:49.38   33.!   21.13   28.! 3:56.50   31.!
   28. Corbelli Giuseppe    59 Portoferraio         Sport Alliance Butty            4:32.59,7    39.19,6  (1529)  M110     126.  24,176 ¦  1:14.37   28.! 2:29.40   42.! 2:51.09   38.!   21.29   36.! 3:56.20   28.!
   29. Pighi Umberto        61 Verona               Butty 94 by Chesini             4:33.55,9    40.15,8  (1315)  M110     130.  24,093 ¦  1:14.07   24.! 2:26.35   25.! 2:47.39   26.!   21.03   26.! 3:56.21   29.!
   30. Feichter Werner      59 Taisten              Bike Technik Team               4:34.05,7    40.25,6  (1578)  M110     131.  24,079 ¦  1:15.01   30.! 2:28.05   29.! 2:49.27   31.!   21.21   30.! 3:57.53   32.!
   31. Reiterer Luis        61 Jenesien             S.V. Jenesien                   4:34.23,7    40.43,6  (1839)  M110     137.  24,052 ¦  1:16.09   39.! 2:28.12   31.! 2:48.25   28.!   20.12   15.! 3:55.06   25.!
   32. Cavalli Eugenio      62 Parma                CRAL BARILLA                    4:34.57,7    41.17,6  (5367)  M110     139.  24,003 ¦  1:25.46  113.! 2:34.55   59.! 2:54.55   50.!   20.00   12.! 3:59.54   34.!
   33. Riccelli Alfonso     61 Bolzano              Assos Team Bolzano              4:36.16,2    42.36,1  (1320)  M110     147.  23,889 ¦  1:14.53   29.! 2:28.09   30.! 2:49.36   32.!   21.27   34.! 3:56.27   30.!
   34. Rainer Franz         64 A-Heinfels           Radclub Hochpustertal           4:36.55,9    43.15,8  (3966)  M110     150.  23,832 ¦  1:17.34   49.! 2:30.51   45.! 2:52.20   43.!   21.28   35.! 4:00.00   35.!
   35. Garofano Marco       62 Buguggiate           Coppi Rancing Team              4:37.10,3    43.30,2  (3632)  M110     152.  23,811 ¦  1:16.13   41.! 2:28.30   35.! 2:49.54   35.!   21.23   32.! 3:59.35   33.!
   36. Fumagalli Flavio     63 Brebbia              Coppi Rancing Team              4:37.22,1    43.42,0  (3631)  M110     153.  23,795 ¦  1:16.27   44.! 2:29.09   37.! 2:50.36   36.!   21.26   33.! 4:01.18   39.!
   37. Tonello Angelo       61 I                    Polisportiva G. Adelmo Grop -   4:38.18,7    44.38,6   (582)  M110     161.  23,714 ¦  1:15.42   36.! 2:30.33   44.! 2:52.32   44.!   21.58   47.! 4:00.19   36.!
   38. Negri Leonardo       63 Aprica               SC G.F. Pinarello               4:39.41,1    46.01,0  (1928)  M110     173.  23,597 ¦  1:16.24   43.! 2:32.11   48.! 2:54.43   48.!   22.31   63.! 4:03.11   40.!
   39. Gregis Luca          61 Paladina (BG)        Team Oprandi Bike               4:40.54,4    47.14,3  (3504)  M110     181.  23,495 ¦  1:15.11   31.! 2:27.09   26.! 2:55.41   52.!   28.32  316.! 4:04.59   43.!
   40. Tugnoli Paolo        63 Longastrino          Sc Bagnacavallo                 4:41.15,4    47.35,3  (4207)  M110     182.  23,466 ¦  1:20.00   67.! 2:34.05   55.! 2:56.39   55.!   22.33   64.! 4:05.33   45.!
   41. Barbieri Fabio       62 Padulle di Sala BO   Bertoldi Team                   4:41.43,9    48.03,8   (642)  M110     184.  23,426 ¦  1:18.01   53.! 2:32.26   50.! 2:54.17   47.!   21.50   43.! 4:04.20   42.!
   42. Mangutsch Sepl       60 I                    SC Alta Badia Raiffeisen        4:42.02,9    48.22,8   (133)  M110     185.  23,400 ¦  1:15.39   35.! 2:30.05   43.! 2:51.27   40.!   21.22   31.! 4:06.21   49.!
   43. Paolini Andrea       64 Forlì                avis forlì                      4:42.36,3    48.56,2  (3998)  M110     191.  23,354 ¦  1:17.59   52.! 2:32.43   51.! 2:54.43   49.!   22.00   48.! 4:05.40   46.!
   44. Frateschi Andrea     63 Lucca                SRM Team                        4:42.38,4    48.58,3  (4496)  M110     192.  23,351 ¦  1:16.04   37.! 2:29.18   39.! 2:51.14   39.!   21.55   45.! 4:00.59   38.!
   45. Peratello Andrea     64 Ferrara              Cicli de Franceschi             4:43.27,4    49.47,3  (1334)  M110     197.  23,283 ¦  1:22.42   84.! 2:35.12   60.! 2:56.52   57.!   21.40   41.! 4:06.27   50.!
   46. Fregolent Maurizio   64 Sernaglia D. Battagl SC G.F. Pinarello               4:43.31,5    49.51,4  (1920)  M110     198.  23,278 ¦  1:19.43   64.! 2:35.55   63.! 2:58.13   60.!   22.18   54.! 4:07.06   51.!
   47. Faganello Andrea     63 Vittorio Veneto      GS Eurovelo Cicli               4:43.50,2    50.10,1  (2662)  M110     202.  23,252 ¦  1:18.52   56.! 2:32.13   49.! 2:53.52   46.!   21.39   38.! 4:05.25   44.!
   48. Ruffoni Ivano        60 Villa di Salò        S.C. Salodiana 1908             4:43.55,9    50.15,8  (7099)  M110     204.  23,245 ¦  1:17.53   50.! 2:30.59   46.! 2:52.39   45.!   21.39   39.! 4:00.34   37.!
   49. Scardovi Iliano      61 Longastrino          SC Alfonsine                    4:44.16,1    50.36,0  (1045)  M110     207.  23,217 ¦  1:17.19   46.! 2:33.18   52.! 2:57.49   59.!   24.30  131.! 4:07.41   53.!
   50. Mossino Massimo      59 Asti                 Sensa Fren                      4:44.32,5    50.52,4  (4820)  M110     208.  23,195 ¦  1:18.42   55.! 2:33.37   54.! 2:55.13   51.!   21.35   37.! 4:05.54   47.!
   51. Biancalani Carlo     63 Fiesole              Pro-Bike Firenze                4:44.43,5    51.03,4  (3347)  M110     209.  23,180 ¦  1:19.58   66.! 2:33.23   53.! 2:56.04   53.!   22.40   66.! 4:08.44   55.!
   52. Wirth Hansueli       61 CH-Neftenbach        VC Seuzach                      4:45.07,2    51.27,1  (3999)  M110     210.  23,148 ¦  1:23.14   89.! 2:38.25   71.! 2:59.46   67.!   21.21   29.! 4:08.29   54.!
   53. Fuchs Michael        63 D-Fürth              Rössleins Radler-Eck            4:46.18,1    52.38,0  (8063)  M110     215.  23,052 ¦  1:24.29  100.! 2:39.48   72.! 3:02.19   72.!   22.31   62.! 4:09.10   56.!
   54. Vanzini Luigi        62 Verona               MTB Golosine                    4:46.39,3    52.59,2  (3073)  M110     217.  23,024 ¦  1:13.46   22.! 2:27.13   27.! 2:49.23   30.!   22.09   52.! 4:07.30   52.!
   55. Barbazza Alberto     63 Induno Olona         Coppi Rancing Team              4:47.22,4    53.42,3  (3627)  M110     222.  22,966 ¦  1:15.38   34.! 2:29.30   41.! 2:51.38   41.!   22.08   51.! 4:06.15   48.!
   56. Moro Angelo          62 Codogne TV           GC Fontanelle                   4:47.38,8    53.58,7  (1048)  M110     224.  22,944 ¦  1:12.36   18.! 2:24.18   18.! 2:45.25   20.!   21.07   27.! 4:03.17   41.!
   57. Widmann Thomas       59 Afing                Revel Team                      4:47.54,9    54.14,8    (69)  M110     227.  22,923 ¦  1:14.36   27.! 2:28.26   34.! 2:59.15   65.!   30.49  365.! 4:09.40   58.!
   58. Ghiraldo Daniele     62 Povoletto UD         GS Grigioneri 2000              4:49.25,8    55.45,7  (7045)  M110     237.  22,803 ¦  1:19.17   58.! 2:34.45   56.! 2:56.45   56.!   22.00   48.! 4:10.15   59.!
   59. Basso Alberto        63 Mondovì              SC Cicli Pepino                 4:49.32,3    55.52,2   (648)  M110     238.  22,794 ¦  1:18.35   54.! 2:34.47   58.! 2:56.26   54.!   21.39   40.! 4:09.16   57.!
   60. Piumini Mauro        62 Lariano              G.S. Impredil                   4:53.17,2    59.37,1   (569)  M110     266.  22,503 ¦  1:15.30   33.! 2:29.16   38.! 2:51.47   42.!   22.30   60.! 4:10.57   60.!
   61. Ghirardelli Stefano  61 Ferrara (FE)         Cus Ferrara Trip To Town        4:53.27,3    59.47,2  (2673)  M110     269.  22,490 ¦  1:21.06   76.! 2:36.46   65.! 2:59.03   64.!   22.17   53.! 4:12.16   62.!
   62. Calderai Filippo     61 Scarperia FI         GS Formigli                     4:53.29,4    59.49,3  (3369)  M110     270.  22,487 ¦  1:19.55   65.! 2:36.15   64.! 2:59.16   66.!   23.00   71.! 4:11.24   61.!
   63. Pellegrinelli Angelo 64 Cantù                Pedale Finese                   4:53.43,8  1:00.03,7  (6685)  M110     272.  22,469 ¦  1:25.22  108.! 2:45.19   97.! 3:07.44   86.!   22.24   58.! 4:16.52   69.!
   64. Alessio Cristian     64 Presezzo BG          GS Abele Marinelli              4:53.50,7  1:00.10,6  (5271)  M110     273.  22,460 ¦  1:20.32   72.! 2:35.51   62.! 2:58.19   62.!   22.27   59.! 4:14.14   64.!
   65. Weir Gary            60 D-Frankfurt          VC Frankfurt                    4:54.03,9  1:00.23,8  (4090)  M110     275.  22,444 ¦  1:22.23   81.! 2:39.51   73.!    ----  ----!    ----  ----! 4:17.08   71.!
   66. Baroncelli Giacomo   61 Sesto F.no           Ciclistica il Regolo            4:54.21,5  1:00.41,4  (3351)  M110     278.  22,421 ¦  1:21.11   78.! 2:37.26   67.! 3:00.34   68.!   23.08   77.! 4:15.49   67.!
   67. Spaliviero Alessandr 60 Tarvisio             Pedale Tarvisiano               4:54.24,0  1:00.43,9  (1961)  M110     279.  22,418 ¦  1:17.34   48.! 2:35.42   61.! 2:58.18   61.!   22.35   65.! 4:14.57   66.!
   68. Baumann Armin        63 D-Sonnenbühl         TSV Undingen                    4:54.28,1  1:00.48,0  (2471)  M110     282.  22,413 ¦  1:20.29   71.! 2:41.11   77.! 3:04.22   74.!   23.10   79.! 4:17.44   72.!
   69. Trovato Vincent      61 Livorno              GS Passuello                    4:55.11,9  1:01.31,8  (6401)  M110     287.  22,357 ¦  1:20.10   68.! 2:42.24   81.! 3:05.26   77.!   23.01   72.! 4:18.31   76.!
   70. Rota Scalabrini Ivan 63 Brembate Sopra BG    Team Oprandi Bike               4:55.43,1  1:02.03,0  (7987)  M110     290.  22,318 ¦  1:19.30   60.! 2:37.00   66.! 2:58.53   63.!   21.53   44.! 4:13.50   63.!
   71. Visintin Marco       62 Gorizia (GO)         GS All Star Gorizia             4:56.05,6  1:02.25,5  (2168)  M110     292.  22,290 ¦  1:24.42  103.! 2:41.43   79.! 3:05.17   76.!   23.34   92.! 4:18.13   73.!
   72. Ulbricht Armin       59 D-Mammendorf                                         4:56.50,2  1:03.10,1  (3882)  M110     298.  22,234 ¦  1:25.37  110.! 2:45.18   96.! 3:07.49   87.!   22.30   61.! 4:18.15   74.!
   73. Torsi Roberto        62 Mozzecane            GS Cuore Rosa                   4:57.06,9  1:03.26,8  (7736)  M110     301.  22,213 ¦  1:19.41   62.! 2:43.28   85.! 3:06.18   81.!   22.49   70.! 4:15.51   68.!
   74. De Faveri Pierangelo 63 Barbisano            SC Solighetto                   4:57.16,5  1:03.36,4  (7594)  M110     305.  22,201 ¦  1:22.31   83.! 2:44.07   87.! 3:06.49   83.!   22.42   68.! 4:17.06   70.!
   75. De Faveri Giovanni   60 Soligo               SC Solighetto                   4:57.42,0  1:04.01,9  (7593)  M110     311.  22,169 ¦  1:22.49   85.! 2:43.24   83.! 3:06.34   82.!   23.09   78.! 4:18.53   77.!
   76. Arletti Gian Piero   62 Soliera              Nuova Corti                     4:58.05,9  1:04.25,8  (1428)  M110     313.  22,140 ¦  1:19.25   59.! 2:40.41   75.! 3:04.24   75.!   23.43   99.! 4:18.29   75.!
   77. Lindner Peter        64 A-Schwaz             Union BLS Cycling Team          4:58.14,4  1:04.34,3  (2115)  M110     315.  22,129 ¦  1:25.21  107.! 2:45.55  100.! 3:09.00   93.!   23.04   74.! 4:20.24   82.!
   78. Dal Forno Alberto    64 Verona               Sport Alliance Butty            4:58.30,2  1:04.50,1  (5276)  M110     321.  22,110 ¦  1:26.04  118.! 2:44.51   91.! 3:09.46   97.!   24.54  150.! 4:21.41   85.!
   79. Ricci Alessandro     62 Pisa                 GS Pinizzotto                   4:59.07,6  1:05.27,5  (6601)  M110     324.  22,064 ¦  1:25.59  117.! 2:47.48  106.! 3:10.30   99.!   22.41   67.! 4:24.15   91.!
   80. Favaretto Gianpietro 63 Fontanelle (TV)      GC Fontanelle                   4:59.08,6  1:05.28,5   (968)  M110     325.  22,063 ¦  1:19.32   61.! 2:37.46   69.! 3:02.10   71.!   24.23  123.! 4:19.12   80.!
   81. Barbui Claudio       59 Portogruaro (VE)     Cicloturistica Portogruarese    4:59.41,8  1:06.01,7  (2002)  M110     333.  22,022 ¦  1:19.42   63.! 2:37.32   68.! 3:00.55   69.!   23.23   83.! 4:19.00   79.!
   82. Villantieri Mauro    64 Vigolzone (PC)       Pedale Pontolliese              4:59.48,8  1:06.08,7  (5304)  M110     336.  22,013 ¦  1:24.39  102.! 2:40.45   76.! 3:04.02   73.!   23.17   82.! 4:19.21   81.!
   83. Pagliarin Alessandro 61 Conegliano           GC Fontanelle                   5:00.15,9  1:06.35,8   (596)  M110     338.  21,980 ¦  1:17.54   51.! 2:38.00   70.! 3:01.32   70.!   23.32   91.! 4:18.57   78.!
   84. Ricci Alessandro     63 San Pietro a Vico    GC SR Team                      5:01.17,8  1:07.37,7  (4586)  M110     343.  21,905 ¦  1:22.05   79.! 2:43.26   84.! 3:10.16   98.!   26.50  240.! 4:24.10   90.!
   85. Mossa Carlo Matteo   59 Roma                 Veloclub 39X26 Roma             5:01.37,7  1:07.57,6  (5372)  M110     348.  21,881 ¦  1:26.43  124.! 2:47.56  108.! 3:12.19  108.!   24.22  121.! 4:23.31   88.!
   86. Cazzola Giulio       64 Vicenza (VI)         SC Vicenza S. Pio X             5:02.33,3  1:08.53,2  (3475)  M110     355.  21,814 ¦  1:20.54   75.! 2:42.14   80.! 3:05.44   78.!   23.30   89.! 4:22.07   86.!
   87. Piumini Marco        60 Lariano              UCA Maiorano Prosc. Toti Trans  5:02.52,4  1:09.12,3   (570)  M110     358.  21,791 ¦  1:17.11   45.! 2:34.46   57.! 2:57.29   58.!   22.43   69.! 4:14.21   65.!
   88. Rosellini Roberto    64 Corciano PG          GS Castel Rigone Pedala         5:03.46,2  1:10.06,1  (3042)  M110     365.  21,726 ¦  1:28.48  141.! 2:49.59  121.! 3:13.28  114.!   23.29   88.! 4:27.02   95.!
   89. Zöggeler Martin      60 Jenesien             S.V. Jenesien                   5:04.25,6  1:10.45,5  (1843)  M110     374.  21,680 ¦  1:22.58   86.! 2:45.06   94.! 3:08.34   90.!   23.28   86.! 4:22.55   87.!
   90. Degli Esposti Paolo  63 Savignano S/P (MO)   Team Boomerang                  5:04.37,0  1:10.56,9  (2253)  M110     377.  21,666 ¦  1:23.17   90.! 2:45.07   95.! 3:08.47   91.!   23.40   95.! 4:23.43   89.!
   91. Gasparri Luca        64 Imola (BO)           GS Dosi                         5:04.53,7  1:11.13,6  (5460)  M110     379.  21,646 ¦  1:26.44  125.! 2:49.31  118.! 3:13.55  116.!   24.23  124.! 4:28.00   99.!
   92. Vandelli Lorenzo     59 Vittorio Veneto TV   Vimotorsport                    5:05.57,1  1:12.17,0  (3623)  M110     389.  21,572 ¦  1:20.46   73.! 2:43.14   82.! 3:07.35   85.!   24.21  119.! 4:20.53   83.!
   93. Bortolotto Denzio    64 I                    Vimotorsport                    5:06.18,5  1:12.38,4  (3617)  M110     395.  21,546 ¦  1:21.09   77.! 2:43.36   86.! 3:07.58   88.!   24.22  120.! 4:21.14   84.!
   94. Varani Ciro          61 Cremona              Ciclomaniaci Avis Busseto       5:06.54,8  1:13.14,7  (4920)  M110     398.  21,504 ¦  1:24.50  104.! 2:45.44   98.! 3:09.25   94.!   23.40   96.! 4:25.06   92.!
   95. Badia Mario          63 Ponte Taro           GC Monta in Bici                5:07.11,0  1:13.30,9  (4664)  M110     402.  21,485 ¦  1:26.17  121.! 2:49.01  113.! 3:12.14  107.!   23.12   81.! 4:27.04   96.!
   96. Bellio Emanuele      61 Trieste              MTB Crazy Mule Trieste          5:07.18,0  1:13.37,9  (2515)  M110     404.  21,477 ¦  1:22.20   80.! 2:41.18   78.! 3:06.09   80.!   24.51  144.! 4:27.34   97.!
   97. Perugini Andrea      59 Roma                 GS forti e veloci               5:07.19,1  1:13.39,0  (4846)  M110     405.  21,476 ¦  1:27.13  130.! 2:46.53  104.! 3:10.33  101.!   23.39   94.! 4:25.26   93.!
   98. Calzavara Francesco  60 Vigodarzere          Nuova Corti                     5:07.45,0  1:14.04,9  (1731)  M110     409.  21,445 ¦  1:13.12   21.! 2:27.57   28.! 3:11.08  102.!   43.10  440.! 4:29.03  101.!
   99. Pugnetti Giorgio     63 I                    Carnia Bike                     5:09.02,1  1:15.22,0  (7090)  M110     423.  21,356 ¦  1:25.25  109.! 2:45.49   99.! 3:09.33   96.!   23.44  101.! 4:27.51   98.!
  100. Severi Eugenio       59 Reggio Emilia        Beriv MultiSport                5:09.32,7  1:15.52,6  (3601)  M110     427.  21,321 ¦  1:25.37  111.! 2:44.14   88.! 3:07.26   84.!   23.12   80.! 4:25.28   94.!
  101. Paltrinieri Daniele  63 Sassuolo (MO)        Scavezzon Squadra Corse         5:10.21,9  1:16.41,8  (3198)  M110     436.  21,265 ¦  1:23.50   93.! 2:45.02   93.! 3:08.50   92.!   23.47  102.! 4:28.11  100.!
  102. Cavallari Stefano    61 Trieste (TS)         SC Gentlemen - Trieste          5:10.41,8  1:17.01,7  (4711)  M110     438.  21,242 ¦  1:24.28   99.! 2:46.13  102.! 3:11.28  104.!   25.15  165.! 4:29.39  103.!
  103. Zanuttini Marco      64 Pagnacco             ACS Buje Cicli Tandem           5:10.50,1  1:17.10,0  (4443)  M110     440.  21,233 ¦  1:24.22   98.! 2:53.36  126.! 3:17.00  125.!   23.24   84.! 4:32.09  109.!
  104. Bosato Paolo         61 Giaveno TO           Soc.Biscotti Sanganesi TO       5:12.02,7  1:18.22,6  (5154)  M110     448.  21,150 ¦  1:25.40  112.! 2:46.36  103.! 3:12.32  109.!   25.55  196.! 4:33.07  112.!
  105. Azzarini Leonello    64 Mestre Venezia       Cicloturistica Prasecco         5:12.15,6  1:18.35,5  (2549)  M110     450.  21,136 ¦  1:22.59   87.! 2:48.23  110.! 3:12.14  106.!   23.50  105.! 4:31.01  106.!
  106. Biondi Massimo       63 Popiglio             Team Lucca 1997                 5:12.27,3  1:18.47,2  (2570)  M110     455.  21,123 ¦  1:26.30  123.! 2:48.34  111.! 3:12.57  111.!   24.22  122.! 4:32.00  108.!
  107. Lugli Marco          64 Ferrara              Professional bike team          5:13.08,4  1:19.28,3  (3246)  M110     461.  21,076 ¦  1:23.54   94.! 2:49.17  115.! 3:13.29  115.!   24.11  114.! 4:33.21  113.!
  108. Trentin Franco       62 Badia Polesine       M.T.B. CLUB BADIA               5:13.19,8  1:19.39,7  (7428)  M110     463.  21,064 ¦  1:31.27  169.! 2:59.01  151.! 3:22.39  147.!   23.38   93.! 4:32.49  111.!
  109. Bassi Gabriele       60 Mozzecane VR         GS Cuore Rosa                   5:13.29,5  1:19.49,4  (7844)  M110     464.  21,053 ¦  1:29.12  150.! 2:56.39  142.! 3:20.28  137.!   23.49  104.! 4:35.34  122.!
  110. Novelli Andrea       59 Savignano sul Rubico Albero delle Ruote              5:13.45,6  1:20.05,5  (4075)  M110     466.  21,035 ¦  1:23.01   88.! 2:49.20  116.! 3:13.11  112.!   23.51  106.! 4:30.10  105.!
  111. Crazzolara Ulrich    60 San Cassiano         Sc Alta Badia                   5:13.50,2  1:20.10,1  (1986)  M110     468.  21,030 ¦  1:24.04   95.! 2:40.24   74.! 3:06.01   79.!   25.37  181.! 4:30.07  104.!
  112. Medeot Sandro        64 Mariano del Friuli ( GS All Star Gorizia             5:14.22,9  1:20.42,8  (2170)  M110     471.  20,993 ¦  1:25.56  116.! 2:46.11  101.! 3:11.21  103.!   25.10  159.! 4:31.59  107.!
  113. Galli Fabio          63 Ravenna              GS Nostromo Yoga                5:14.24,3  1:20.44,2  (5357)  M110     472.  20,992 ¦  1:28.52  144.! 2:58.20  149.! 3:22.18  145.!   23.58  109.! 4:35.58  123.!
  114. Geminiani Paolo      60 Cerlongo             ASR Evolution Team              5:15.05,9  1:21.25,8  (4466)  M110     478.  20,945 ¦  1:20.51   74.! 2:44.46   90.! 3:09.30   95.!   24.44  141.! 4:29.27  102.!
  115. Assi Paolo           63 Zanica               Ciclistica Zanica               5:15.21,5  1:21.41,4  (6539)  M110     481.  20,928 ¦  1:27.55  136.! 2:51.45  123.! 3:14.05  118.!   22.20   55.! 4:35.05  117.!
  116. Scarpa Roberto       60 Spinea (VE)          GC Asseggiano Transped          5:15.48,6  1:22.08,5  (4885)  M110     485.  20,898 ¦  1:27.10  129.! 2:54.12  133.! 3:18.40  131.!   24.27  128.! 4:35.19  121.!
  117. Giusti Luciano       59 Roma                 GC Luca Pinarello               5:16.18,9  1:22.38,8  (4762)  M110     488.  20,865 ¦  1:24.06   96.! 2:47.09  105.! 3:12.35  110.!   25.25  171.! 4:33.53  115.!
  118. Branchini Claudio    64 Cocquio              GC Campo dei Fiori              5:16.37,2  1:22.57,1  (6423)  M110     490.  20,845 ¦  1:25.52  114.! 2:52.27  125.! 3:16.16  124.!   23.48  103.! 4:35.17  120.!
  119. Mansi Amedeo         61 Palmanova (UD)       GC Cicli - 4R                   5:16.39,4  1:22.59,3  (5455)  M110     491.  20,842 ¦  1:31.50  175.! 2:56.46  144.! 3:19.50  133.!   23.03   73.! 4:33.44  114.!
  120. Zanetti Fabio        64 Padova               SC Ponte San Nicolò             5:17.31,3  1:23.51,2  (1399)  M110     495.  20,785 ¦  1:28.49  142.! 2:52.20  124.! 3:17.12  126.!   24.51  146.! 4:38.48  133.!
  121. Colussi Sergio       63 Trieste              MTB Crazy Mule                  5:17.31,4  1:23.51,3  (4721)  M110     496.  20,785 ¦  1:25.05  105.! 2:48.39  112.! 3:14.25  120.!   25.45  190.! 4:36.09  125.!
  122. Poles Fabio          62 Sacile (PN)          Eurovelo Vittorio Veneto        5:17.44,9  1:24.04,8  (5491)  M110     498.  20,771 ¦  1:27.05  127.! 2:56.50  145.! 3:21.26  142.!   24.35  133.! 4:38.35  132.!
  123. Sensi Marco          60 Antraccoli (LU)      Polisportiva Versilia           5:17.51,5  1:24.11,4  (4892)  M110     499.  20,763 ¦  1:26.05  119.! 2:50.23  122.! 3:14.23  119.!   23.59  112.! 4:32.29  110.!
  124. Minuscoli Giacomo Fr 63 Ponte Nossa          Team Idea Bici                  5:17.56,2  1:24.16,1  (6207)  M110     501.  20,758 ¦  1:29.26  156.! 2:55.57  139.! 3:20.50  141.!   24.53  147.! 4:37.03  128.!
  125. Padovani Stefano     61 Milano               Cus Ferrara in bici             5:18.01,3  1:24.21,2  (4010)  M110     504.  20,753 ¦  1:28.55  145.! 2:57.13  147.! 3:20.44  140.!   23.31   90.! 4:40.23  136.!
  126. Brkic Halid          64 A-Neustift           SV Schlickeralm-Stubai          5:18.03,2  1:24.23,1  (8381)  M110     505.  20,751 ¦  1:20.10   70.! 2:49.23  117.! 3:14.04  117.!   24.41  139.! 4:34.45  116.!
  127. Filiputti Mauro      59 Castelletto Ticino   GS La Torbiera                  5:18.17,8  1:24.37,7  (6723)  M110     507.  20,735 ¦  1:30.35  163.! 2:55.15  136.! 3:19.35  132.!   24.19  117.! 4:36.45  126.!
  128. Scalvini Bruno       61 OSPITALETTO BRESCIAN GC AMATORI OSPITALETTO          5:18.26,2  1:24.46,1  (7163)  M110     508.  20,726 ¦  1:24.38  101.! 2:44.57   92.! 3:08.26   89.!   23.28   87.! 4:35.14  119.!
  129. Padoin Graziano      63 Fontigo di Sernaglia SC Mionetto Valdobbiadene       5:18.26,3  1:24.46,2  (7366)  M110     509.  20,726 ¦  1:28.21  137.! 2:54.09  132.! 3:18.35  128.!   24.25  125.! 4:38.18  130.!
  130. Munaro Ilario        61 Alte di Montecchio M GS Chiementin                   5:18.30,5  1:24.50,4  (1462)  M110     510.  20,721 ¦  1:27.46  134.! 2:49.40  119.! 3:13.24  113.!   23.43  100.! 4:35.08  118.!
  131. Opletal Kamil        63 CZ-Prague 10         K.A.O.S.                        5:19.05,4  1:25.25,3  (6592)  M110     514.  20,683 ¦  1:25.06  106.! 2:49.42  120.! 3:15.08  121.!   25.26  172.! 4:36.51  127.!
  132. Speranza Gianfranco  62 L'Aquila             Team Pianeta ciclo              5:19.46,4  1:26.06,3  (7244)  M110     517.  20,639 ¦  1:30.18  161.! 2:56.36  141.! 3:22.48  148.!   26.12  204.! 4:41.35  138.!
  133. Neroni Oriano        59 Castellarano         Ciclistica Castellarano         5:19.52,4  1:26.12,3   (632)  M110     518.  20,633 ¦  1:27.27  131.! 2:55.33  138.! 3:20.33  138.!   25.00  152.! 4:39.33  134.!
  134. Frandsen Niels Monta 63 DK-Gentofte                                          5:19.54,1  1:26.14,0  (2343)  M110     519.  20,631 ¦  1:36.42  265.! 2:59.12  153.! 3:22.54  149.!   23.41   97.! 4:42.36  140.!
  135. Felcaro Ezio         61 Percoto/Pavia di Udi GS Manzano                      5:20.02,8  1:26.22,7  (2512)  M110     520.  20,621 ¦  1:24.20   97.! 2:54.09  131.! 3:18.07  127.!   23.58  111.! 4:37.40  129.!
  136. Hauserl Martin       61 D-Spaichingen                                        5:20.19,4  1:26.39,3  (6143)  M110     523.  20,604 ¦  1:29.12  151.! 2:55.58  140.! 3:20.44  139.!   24.46  143.! 4:40.10  135.!
  137. Comi Vittorio        62 Monticello           GS Lomaniga                     5:21.14,9  1:27.34,8  (2643)  M110     533.  20,544 ¦  1:22.24   82.! 2:44.16   89.! 3:10.31  100.!   26.14  207.! 4:36.08  124.!
  138. Naldi Davide         59 Bologna              Arci Nova Monte S.Pietro        5:21.22,9  1:27.42,8  (4597)  M110     535.  20,536 ¦  1:31.36  171.! 2:53.56  129.! 3:18.39  130.!   24.42  140.! 4:38.21  131.!
  139. Gusso Enzo           62 I                    GS La Salute - S Giorgio        5:22.06,6  1:28.26,5  (5348)  M110     539.  20,489 ¦  1:32.09  180.! 3:08.39  204.! 3:34.24  197.!   25.44  187.! 4:45.01  148.!
  140. Scudiero Marco       63 Scanzorosciate       Team Idea Bici                  5:22.16,9  1:28.36,8  (6233)  M110     542.  20,478 ¦  1:32.50  185.! 3:07.16  191.! 3:30.58  178.!   23.42   98.! 4:43.04  143.!
  141. Granzo Roberto       61 Olmo di Martellago   Polisportiva Arcobaleno         5:22.22,8  1:28.42,7  (7210)  M110     543.  20,472 ¦  1:31.38  172.! 2:54.42  135.! 3:19.54  135.!   25.11  161.! 4:42.42  141.!
  142. Seghieri Angelo      59 Montecatini T.       G.S. Team Cicloidea             5:23.48,2  1:30.08,1  (4890)  M110     553.  20,382 ¦  1:31.58  176.! 3:00.21  158.! 3:25.26  155.!   25.05  154.! 4:42.01  139.!
  143. Dorigo Gianfranco    59 Caorle (VE)          GS La Salute - S Giorgio        5:24.08,8  1:30.28,7  (5347)  M110     556.  20,361 ¦  1:32.15  181.! 3:08.40  205.! 3:34.27  199.!   25.46  191.! 4:47.38  157.!
  144. Messineo Marco       64 Paganica (AQ)        Cicli Ricci                     5:24.25,3  1:30.45,2  (7066)  M110     559.  20,343 ¦  1:31.58  176.! 2:57.12  146.! 3:24.13  151.!   27.01  250.! 4:43.10  144.!
  145. Heidl Steffen        63 D-Penig              Velofreunde Biker Chemnitz      5:24.58,5  1:31.18,4  (5437)  M110     561.  20,309 ¦  1:30.20  162.! 2:53.41  127.! 3:18.36  129.!   24.55  151.! 4:41.19  137.!
  146. Drusiani Claudio     61 Bastiglia (MO)       Pol. Gino Nasi                  5:24.59,9  1:31.19,8  (3388)  M110     562.  20,307 ¦  1:23.50   91.! 2:48.18  109.! 3:15.24  122.!   27.06  253.! 4:44.15  145.!
  147. Trevisan Paolo       61 Aiello del Friuli    GC 4 R. Aiello                  5:26.10,1  1:32.30,0  (6613)  M110     570.  20,234 ¦  1:34.31  217.! 3:01.38  161.! 3:26.53  159.!   25.14  164.! 4:47.31  156.!
  148. Goldoni Gianni       61 Modena               Polisportiva Forese Nord        5:26.27,1  1:32.47,0  (6872)  M110     575.  20,217 ¦  1:29.02  149.! 3:06.42  188.! 3:31.02  179.!   24.20  118.! 4:45.30  150.!
  149. Skerk Claudio        61 Trieste              SK Devin                        5:26.40,7  1:33.00,6  (7838)  M110     581.  20,203 ¦  1:29.20  154.! 3:02.11  162.! 3:27.27  161.!   25.15  166.! 4:46.45  155.!
  150. Generali Alessandro  64 Modena               Biker team modena               5:27.20,4  1:33.40,3  (8071)  M110     585.  20,162 ¦  1:33.42  202.! 3:06.03  186.! 3:30.18  174.!   24.15  116.! 4:48.03  158.!
  151. Manzoni Claudio      61 Alzano Lombardo (BG) GS Speedy Sport Speedylonga     5:27.22,5  1:33.42,4  (7497)  M110     586.  20,160 ¦  1:36.53  267.! 3:05.40  183.! 3:30.52  176.!   25.12  162.! 4:45.52  151.!
  152. Galizzi Mosè Mauro   64 San Giovanni Bianco  GS Speedy Sport Speedylonga     5:27.30,2  1:33.50,1  (7479)  M110     588.  20,152 ¦  1:32.16  182.! 3:03.38  168.! 3:28.14  164.!   24.35  134.! 4:48.14  160.!
  153. Bona Arturo          62 Monastier            GS Dal Ben 3 Monastier          5:27.37,8  1:33.57,7  (2165)  M110     590.  20,144 ¦  1:28.50  143.! 3:00.34  159.! 3:25.50  157.!   25.16  167.! 4:42.44  142.!
  154. Paladini Alessandro  62 Lucca                Pedale Val di Serchio           5:27.56,0  1:34.15,9  (7078)  M110     593.  20,126 ¦  1:29.12  152.! 3:00.12  157.! 3:23.18  150.!   23.05   76.! 4:46.27  153.!
  155. Bestetti Maurizio    60 Firenze (FI)         GS Cicli Conti                  5:28.00,2  1:34.20,1  (4680)  M110     594.  20,121 ¦  1:27.51  135.! 2:53.43  128.! 3:19.51  134.!   26.07  201.! 4:44.40  146.!
  156. Geiselmann Marcellus 59 D-Mühlheim                                           5:28.04,4  1:34.24,3  (4206)  M110     596.  20,117 ¦  1:28.30  140.! 2:59.23  154.! 3:24.53  154.!   25.29  178.! 4:44.48  147.!
  157. Bertulazzi Luigi     64 Romano di Lombardia  Bici Club AVIS-AIDO-COVO        5:28.41,2  1:35.01,1  (6826)  M110     604.  20,079 ¦  1:29.21  155.! 2:57.53  148.! 3:22.24  146.!   24.30  130.! 4:48.08  159.!
  158. Scheidler Alfred     64 D-Tirschenreuth      RSC Tirschenreuth               5:30.05,3  1:36.25,2  (7718)  M110     621.  19,994 ¦  1:31.47  174.! 3:04.24  176.! 3:29.18  167.!   24.54  148.! 4:48.53  162.!
  159. Capretta Eugenio     59 Segusino (TV)        SC Mionetto Valdobbiadene       5:30.28,1  1:36.48,0  (5275)  M110     628.  19,971 ¦  1:32.24  183.! 3:04.17  174.! 3:30.52  177.!   26.34  224.! 4:49.31  164.!
  160. Larghi Giorgio       63 Binago (CO)          GC Binago                       5:30.34,2  1:36.54,1  (3427)  M110     633.  19,965 ¦  1:28.24  139.! 2:54.36  134.! 3:20.27  136.!   25.51  195.! 4:46.31  154.!
  161. Dell'Oca Roberto     61 Verano Brianza       GS Cicli Spreafico              5:30.35,1  1:36.55,0  (6955)  M110     634.  19,964 ¦  1:27.06  128.! 2:58.40  150.! 3:22.06  143.!   23.25   85.! 4:48.17  161.!
  162. Benvenuti Franco     64 Poggio Berni         G.S. Olimpia Nuova              5:31.06,4  1:37.26,3  (7004)  M110     642.  19,933 ¦  1:31.39  173.! 3:00.03  155.! 3:24.42  153.!   24.38  137.! 4:46.02  152.!
  163. Minuscoli Mariano    64 Torre Boldone        Team Idea Bici                  5:31.27,3  1:37.47,2  (6209)  M110     649.  19,912 ¦  1:33.05  189.! 3:07.13  190.! 3:32.26  187.!   25.13  163.! 4:50.02  167.!
  164. Gobbin Stefano       64 Villar Perosa        Equipe 96 del Pinerolese        5:32.03,8  1:38.23,7  (6767)  M110     655.  19,875 ¦  1:34.22  212.! 3:10.00  215.! 3:35.44  210.!   25.44  186.! 4:54.05  177.!
  165. Vannini Paolo        60 S.Piero a Sieve (FI) Pol.S.Piero a Sieve             5:32.23,5  1:38.43,4  (3837)  M110     659.  19,856 ¦  1:34.27  214.! 3:07.55  196.! 3:33.23  191.!   25.28  177.! 4:49.43  165.!
  166. Vannini Renzo        60 San Piero a Sieve    Ciclistica il Regolo            5:32.24,2  1:38.44,1  (8259)  M110     660.  19,855 ¦  1:34.27  215.! 3:08.23  200.! 3:33.24  192.!   25.01  153.! 4:49.44  166.!
  167. Kämpfe Andreas       61 D-Langenhessen       SV Sachsen 90 Werdau            5:32.36,5  1:38.56,4   (921)  M110     661.  19,843 ¦  1:25.54  115.! 2:49.15  114.! 3:15.47  123.!   26.31  222.! 4:45.16  149.!
  168. Tosini Enrico        63 Sarzana              GS Bici Center                  5:32.50,4  1:39.10,3  (7940)  M110     662.  19,829 ¦  1:34.53  226.! 3:04.53  181.! 3:31.39  182.!   26.45  235.! 4:52.22  174.!
  169. Baker Larry          59 D-Bruckmühl                                          5:32.59,4  1:39.19,3  (4135)  M110     664.  19,820 ¦  1:29.01  147.! 3:00.05  156.! 3:26.02  158.!   25.57  198.! 4:50.20  168.!
  170. Visconti Fabio       60 Como                 G.S. ComoInBici                 5:34.33,9  1:40.53,8  (7992)  M110     678.  19,727 ¦  1:30.14  160.! 3:12.54  239.! 3:35.15  206.!   22.21   56.! 4:54.03  176.!
  171. Setti Gualberto      64 Castelnovo di Sotto  Pedale Castelnovese MTB         5:35.42,3  1:42.02,2  (6234)  M110     690.  19,660 ¦  1:29.01  148.! 3:06.34  187.! 3:31.07  180.!   24.33  132.! 4:52.03  171.!
  172. Fisichella Filippo   61 Cesano Boscone MI    GC F.Moser Milano               5:36.43,3  1:43.03,2  (6176)  M110     699.  19,600 ¦  1:34.29  216.! 3:01.22  160.! 3:27.43  163.!   26.21  210.! 4:56.49  187.!
  173. Derr Bernhard        64 D-Lauda-Königshofen                                  5:36.49,9  1:43.09,8  (4172)  M110     700.  19,594 ¦  1:39.12  289.! 3:09.27  212.! 3:34.04  195.!   24.37  136.! 4:54.16  179.!
  174. Aggeler Daniel       64 CH-Hittnau           Team Hittnau                    5:36.52,1  1:43.12,0  (8267)  M110     701.  19,592 ¦  1:33.38  201.! 3:03.26  166.! 3:28.18  165.!   24.51  145.! 4:52.23  175.!
  175. Tasini Roberto       61 Rimini               RIMINI BICH                     5:37.02,5  1:43.22,4  (8181)  M110     704.  19,582 ¦  1:31.13  166.! 3:12.25  234.! 3:37.53  229.!   25.27  175.! 4:55.14  180.!
  176. Piran Gianni Valenti 59 Staranzano (GO)      Associazione Sportiva Ronchi    5:38.10,5  1:44.30,4  (4345)  M110     712.  19,516 ¦  1:31.08  165.! 3:04.17  173.! 3:30.43  175.!   26.25  215.! 4:55.56  185.!
  177. Zanetti Massimo      59 Monte San Pietro BO  Arci Nova Monte S.Pietro        5:38.35,7  1:44.55,6  (4596)  M110     716.  19,492 ¦  1:26.09  120.! 3:02.12  163.! 3:28.19  166.!   26.07  201.! 4:49.28  163.!
  178. Manazzale Stefano    61 Bergamo              G.S. Valvole Record             5:38.36,3  1:44.56,2  (4552)  M110     717.  19,491 ¦  1:27.41  133.! 3:07.57  197.! 3:33.18  190.!   25.21  169.! 4:56.34  186.!
  179. Ricci Marco          59 ALMESE (TO)          Team JOLLY-STROPPA              5:38.42,3  1:45.02,2  (7522)  M110     719.  19,485 ¦  1:33.33  198.! 3:04.50  179.! 3:29.58  172.!   25.08  155.! 4:57.13  189.!
  180. Hadersbeck Rudi      64 D-Straubing          SV Perkam                       5:38.47,8  1:45.07,7  (2370)  M110     722.  19,480 ¦  1:32.04  179.! 3:02.59  165.! 3:29.46  168.!   26.46  236.! 4:55.28  181.!
  181. Daminato Piervittori 61 Chieri               G.s. pedale chierese cicli gay  5:39.13,6  1:45.33,5  (7299)  M110     725.  19,456 ¦  1:33.18  194.! 3:05.07  182.! 3:32.27  188.!   27.20  265.! 4:55.55  184.!
  182. Tonutti Daniele      60 Udine                Cicloturistica Portogruarese    5:39.27,5  1:45.47,4  (2041)  M110     727.  19,442 ¦  1:29.34  157.! 2:59.03  152.! 3:25.33  156.!   26.30  221.! 4:52.08  172.!
  183. Steinmetz Christoph  60 D-Bammental          ZAK Mauer                       5:40.22,1  1:46.42,0  (3815)  M110     736.  19,390 ¦  1:33.52  206.! 3:09.19  209.! 3:36.02  214.!   26.42  232.! 4:55.48  183.!
  184. Klingner Harald      62 D-Riesa              SC Riesa                        5:40.48,2  1:47.08,1  (2855)  M110     738.  19,366 ¦  1:28.58  146.! 3:07.10  189.! 3:34.09  196.!   26.58  246.! 4:55.41  182.!
  185. Mendorf Jürgen       64 D-Gutach             Team Hoeser                     5:41.31,4  1:47.51,3  (7065)  M110     746.  19,325 ¦  1:35.17  233.! 3:07.41  193.! 3:34.49  203.!   27.08  256.! 4:58.48  197.!
  186. Saccani Luca         64 Cast. Sotto (RE)     Pedale Castelnovese             5:41.32,5  1:47.52,4  (4171)  M110     747.  19,324 ¦  1:36.13  257.! 3:12.32  236.! 3:36.58  221.!   24.26  126.! 5:00.20  202.!
  187. Miari Italo          64 Cadelbosco di Sopra  Castelnovese Mtb                5:41.33,3  1:47.53,2  (4555)  M110     748.  19,323 ¦  1:36.10  255.! 3:12.31  235.! 3:36.58  220.!   24.27  129.! 5:00.22  203.!
  188. Abbondanza Marco     60 Genova               AS Effe 2000 - Happybike        5:41.40,8  1:48.00,7  (3011)  M110     749.  19,316 ¦  1:30.09  159.! 3:04.07  171.! 3:29.54  171.!   25.46  192.! 4:52.20  173.!
  189. Wagner Klaus         61 D-Bad Neuenahr-Ahrwe Lech Angels                     5:41.52,8  1:48.12,7  (5249)  M110     753.  19,305 ¦  1:38.02  278.! 3:04.50  180.! 3:32.01  183.!   27.10  259.! 4:58.02  193.!
  190. Reichenspurner Josef 61 D-Mühldorf           Radteam LG Mettenheim           5:42.05,2  1:48.25,1  (7797)  M110     756.  19,293 ¦  1:32.51  186.! 3:10.55  223.! 3:36.06  216.!   25.10  159.! 4:58.46  195.!
  191. Wastlhuber Jepp      59 D-Mühldorf           Radteam LG Mettenheim           5:42.06,4  1:48.26,3  (7798)  M110     757.  19,292 ¦  1:32.52  187.! 3:10.57  224.! 3:36.06  217.!   25.09  156.! 4:58.47  196.!
  192. Roth Walter          59 D-Lohr                                               5:42.08,3  1:48.28,2  (2903)  M110     758.  19,290 ¦  1:36.09  254.! 3:04.32  177.! 3:30.17  173.!   25.44  189.! 4:54.10  178.!
  193. Granruaz Helmuth     63 La Villa (BZ)        S.C. Alta Badia-Raiffeisen      5:42.15,8  1:48.35,7  (2682)  M110     760.  19,283 ¦  1:34.52  224.! 3:05.45  184.! 3:32.13  185.!   26.28  218.! 4:58.36  194.!
  194. Ferioli Stefano      63 Argelato             G..S Argelatese                 5:42.21,1  1:48.41,0  (8284)  M110     762.  19,278 ¦  1:33.33  198.! 3:09.05  207.! 3:34.48  202.!   25.43  185.! 4:57.35  190.!
  195. Dellaquila Giovanni  62 Mestre               Team Bicimania Mestre           5:42.24,3  1:48.44,2  (7028)  M110     763.  19,275 ¦  1:37.20  271.! 3:12.20  233.! 3:39.21  235.!   27.00  249.! 5:00.03  200.!
  196. Markelj Franc        59 SLO-Krastnik         KD Hrastnik                     5:42.42,3  1:49.02,2  (6913)  M110     764.  19,258 ¦  1:33.08  191.! 3:13.44  245.! 3:39.40  236.!   25.56  197.!    ----  ----!
  197. Locatelli Guido      59 Albano Sant'Alessand GS TESTA TIPOLITOGRAFIA         5:42.48,2  1:49.08,1  (6787)  M110     767.  19,253 ¦  1:33.32  197.! 3:08.02  198.! 3:34.24  198.!   26.22  212.! 5:00.09  201.!
  198. Grigoli Angelo       64 Marano di Valpolicel Team F.lli Penna Telmec         5:42.48,4  1:49.08,3  (6876)  M110     768.  19,252 ¦  1:33.50  205.! 3:07.44  194.! 3:32.11  184.!   24.26  127.! 4:51.51  170.!
  199. Rubini Roveno        62 Zola Predosa (BO)    Arci Nova Monte S.Pietro        5:43.13,2  1:49.33,1  (4593)  M110     776.  19,229 ¦  1:34.07  209.! 3:10.36  219.! 3:36.19  219.!   25.42  184.! 4:56.59  188.!
  200. Maltoni Daniele      62 Forlì                Sport Service Team              5:43.49,6  1:50.09,5  (7146)  M110     779.  19,195 ¦  1:34.20  210.! 3:03.32  167.! 3:27.37  162.!   24.04  113.! 5:02.33  210.!
  201. Da Pian Luca         62 Verona               Sport Alliance Butty            5:44.18,8  1:50.38,7  (6301)  M110     782.  19,168 ¦  1:36.32  261.! 3:10.04  216.! 3:37.19  226.!   27.15  262.! 5:02.24  209.!
  202. Cal Sandrino         62 Torre di Mostro VE   Team Eurimp                     5:44.45,5  1:51.05,4  (2105)  M110     786.  19,143 ¦  1:38.15  283.! 3:11.08  226.! 3:37.57  230.!   26.49  239.! 5:01.30  207.!
  203. Schlösser Christian  63 D-Weßling                                            5:44.56,1  1:51.16,0  (7405)  M110     788.  19,134 ¦  1:23.50   92.! 2:56.46  143.! 3:27.16  160.!   30.30  356.! 4:51.48  169.!
  204. Hunke Roland         64 D-Ulmen                                              5:44.58,6  1:51.18,5  (6577)  M110     789.  19,131 ¦  1:36.08  253.! 3:13.10  240.! 3:38.05  231.!   24.54  149.! 4:57.45  191.!
  205. Fellbaum Uwe         60 D-Chemnitz           Team Blitzpunkt Chemnitz        5:45.10,6  1:51.30,5  (7608)  M110     790.  19,120 ¦  1:40.21  300.! 3:15.03  252.! 3:41.53  249.!   26.49  238.! 5:02.20  208.!
  206. von Minckwitz Alexan 64 D-Fürstenfeldbruck                                   5:45.55,4  1:52.15,3  (3239)  M110     793.  19,079 ¦  1:35.51  243.! 3:09.22  211.! 3:36.01  213.!   26.38  228.! 5:06.36  227.!
  207. Dijkman Ruud         59 NL-VH AMERSFOORT     Driebergse Tourclub             5:45.57,6  1:52.17,5  (4230)  M110     795.  19,077 ¦  1:34.39  221.! 3:03.48  170.! 3:29.51  169.!   26.02  200.! 5:00.55  204.!
  208. Mora Claudio         61 Parma                GS Massaflex Bedogni            5:46.09,8  1:52.29,7  (6210)  M110     797.  19,066 ¦  1:35.03  227.! 3:16.43  257.! 3:43.06  252.!   26.22  212.! 5:00.01  198.!
  209. Huber Eugen          62 D-Mettenheim         Radteam LG Mettenheim           5:46.31,1  1:52.51,0  (7796)  M110     799.  19,046 ¦  1:32.53  188.! 3:10.55  222.! 3:36.05  215.!   25.09  157.! 5:03.12  213.!
  210. Stradi Claudio       59 Sassuolo (MO)        Team Iacco Bike                 5:47.18,2  1:53.38,1  (3086)  M110     806.  19,003 ¦  1:19.05   57.! 3:02.51  164.! 3:29.52  170.!   27.01  252.! 5:02.49  212.!
  211. Nicponsky Roman      64 A-Mistelbach an der  Bank Austria                    5:47.20,9  1:53.40,8  (3733)  M110     807.  19,001 ¦  1:36.12  256.! 3:12.35  238.! 3:38.33  234.!   25.58  199.! 5:01.23  206.!
  212. Wingert Edwin        62 A-Linz                                               5:47.27,4  1:53.47,3  (2295)  M110     808.  18,995 ¦  1:36.34  263.! 3:11.00  225.! 3:35.46  211.!   24.45  142.! 5:05.44  225.!
  213. Holzleitner Werner   60 D-München            Lech Angels                     5:47.38,7  1:53.58,6  (5192)  M110     811.  18,984 ¦  1:26.56  126.! 2:53.58  130.! 3:22.09  144.!   28.11  299.! 4:57.53  192.!
  214. Mora Gianni          64 Parma                GS Massaflex Bedogni            5:47.40,6  1:54.00,5  (6211)  M110     812.  18,983 ¦  1:35.04  228.! 3:16.46  258.! 3:43.09  253.!   26.22  214.! 5:00.03  199.!
  215. Frescaroli Claudio   61 Ponte Taro           GC Monta in Bici                5:47.46,2  1:54.06,1  (4759)  M110     815.  18,978 ¦  1:34.26  213.! 3:04.23  175.! 3:32.16  186.!   27.52  285.! 5:06.41  228.!
  216. Ronchetti Claudio    59 Como                 AS Ironlario Triathlon Club     5:48.36,8  1:54.56,7  (7710)  M110     825.  18,932 ¦  1:32.41  184.! 3:08.30  202.! 3:35.05  204.!   26.34  224.! 5:04.18  215.!
  217. Bellezza Quater Marc 64 Ciriè (TO)           Cicli Matergia Cirié            5:48.41,5  1:55.01,4  (4675)  M110     826.  18,927 ¦  1:33.34  200.! 3:05.59  185.! 3:33.48  194.!   27.49  282.! 5:04.45  218.!
  218. Klemera Hans Jörg    59 Bolzano              UC Bolzano                      5:48.46,5  1:55.06,4   (174)  M110     827.  18,923 ¦     ----  ----!    ----  ----!    ----  ----!    ----  ----!    ----  ----!
  219. Klaiber Alexander    61 D-Spaichingen                                        5:48.53,5  1:55.13,4  (6146)  M110     829.  18,917 ¦  1:37.18  270.! 3:09.47  213.! 3:37.19  225.!   27.32  272.! 5:05.30  223.!
  220. Castro Giampaolo     59 Trieste (TS)         SC Gentlemen - Trieste          5:48.57,4  1:55.17,3  (4706)  M110     831.  18,913 ¦  1:34.46  223.! 3:15.45  254.! 3:42.03  250.!   26.17  208.! 5:04.35  217.!
  221. Schlager Uwe         64 I                                                    5:48.59,8  1:55.19,7   (177)  M110     832.  18,911 ¦  1:29.19  153.! 3:08.08  199.! 3:35.29  209.!   27.20  266.! 5:05.08  221.!
  222. Ravelli Giuseppe     62 Torre Boldone        GS Cral Posta Bergamo           5:49.06,7  1:55.26,6  (7823)  M110     834.  18,905 ¦  1:34.07  208.! 3:09.48  214.! 3:35.16  207.!   25.27  174.! 5:04.01  214.!
  223. Ghislandi Angelo     62 Antegnate            Bici Club AVIS-AIDO-COVO        5:49.37,0  1:55.56,9  (6870)  M110     841.  18,877 ¦  1:27.35  132.! 3:11.33  227.! 3:37.00  222.!   25.27  173.! 5:02.37  211.!
  224. Seligardi Alberto    59 Reggio Emilia        Beriv Multisport                5:50.34,7  1:56.54,6  (7410)  M110     852.  18,826 ¦  1:35.27  236.! 3:10.11  217.! 3:37.24  227.!   27.12  261.! 5:05.37  224.!
  225. Caccioppini Stefano  61 La Romola Firenze    GC La Romola                    5:50.38,2  1:56.58,1  (2321)  M110     853.  18,822 ¦  1:28.23  138.! 2:55.25  137.! 3:24.19  152.!   28.53  322.! 5:04.21  216.!
  226. Kainz Philipp        61 D-München                                            5:50.52,5  1:57.12,4  (2626)  M110     860.  18,810 ¦  1:35.20  234.! 3:16.12  256.! 3:41.22  247.!   25.10  158.! 5:04.56  219.!
  227. Lucani Marco         64 Bisuschio VA         U.C. Porto Ceresio              5:51.20,9  1:57.40,8  (7342)  M110     865.  18,784 ¦  1:29.49  158.! 3:12.08  230.! 3:37.33  228.!   25.25  170.! 5:08.03  233.!
  228. Cervellati Mauro     59 Budrio               SC Avis Budrio                  5:51.24,0  1:57.43,9  (7588)  M110     866.  18,782 ¦  1:38.29  284.! 3:16.52  259.! 3:43.45  255.!   26.53  243.! 5:07.28  231.!
  229. Canclini Dario       61 Cepina Valdisotto    U.S. Bormiese                   5:51.26,1  1:57.46,0  (3379)  M110     867.  18,780 ¦  1:33.08  190.! 3:08.49  206.! 3:37.12  223.!   28.23  306.! 5:05.23  222.!
  230. Schwartz Bob         60 USA                  www.bikecamp.com                5:51.49,1  1:58.09,0   (562)  M110     872.  18,759 ¦  1:41.31  315.! 3:17.47  264.! 3:44.46  261.!   26.59  248.! 5:06.51  229.!
  231. Neumann Steffen      64 D-Sulzbach-Laufen                                    5:51.52,7  1:58.12,6  (4335)  M110     873.  18,756 ¦  1:39.24  291.! 3:11.39  228.! 3:39.44  237.!   28.05  295.! 5:07.51  232.!
  232. Battini Stefano      64 Massa                Club Alpi Apuane                5:53.13,3  1:59.33,2  (6436)  M110     883.  18,685 ¦  1:35.50  242.! 3:14.49  251.! 3:41.12  246.!   26.22  211.! 5:10.23  241.!
  233. Guidetti Vincenzino  61 CENTO PR             Team Bertoldi Ciclissimo        5:53.46,7  2:00.06,6  (4004)  M110     890.  18,655 ¦  1:36.03  249.! 3:21.07  284.! 3:48.23  280.!   27.15  263.! 5:08.54  237.!
  234. Tonazzo Giuseppe     60 Padova               SC Ponte San Nicolò             5:53.47,0  2:00.06,9  (6980)  M110     891.  18,655 ¦  1:37.02  268.! 3:14.10  249.! 3:43.41  254.!   29.31  335.! 5:08.18  234.!
  235. Seifert Uwe          60 D-Ehrenfriedersdorf                                  5:53.55,6  2:00.15,5  (3788)  M110     895.  18,647 ¦  1:35.07  229.! 3:15.19  253.! 3:42.50  251.!   27.31  271.! 5:09.54  238.!
  236. Müller Erich         62 D-Bad Reichenhall    AV Bad Reichnhall               5:54.16,1  2:00.36,0  (4330)  M110     898.  18,629 ¦  1:38.08  282.! 3:13.32  241.! 3:40.02  239.!   26.29  219.! 5:10.36  242.!
  237. Cor De Graaf         64 NL-HM AMSTERDAM                                      5:54.38,8  2:00.58,7  (2439)  M110     903.  18,610 ¦  1:33.18  193.! 3:08.27  201.! 3:35.09  205.!   26.41  231.! 5:05.07  220.!
  238. Frigerio Roberto     61 Vedano al Lambro MI  GS Amici del Pedale             5:54.40,2  2:01.00,1  (6660)  M110     904.  18,608 ¦  1:31.20  167.! 3:18.31  267.! 3:45.30  266.!   26.59  247.! 5:10.06  240.!
  239. Manente Daniele      62 Trivignano VE        Polisportiva Arcobaleno         5:54.42,7  2:01.02,6  (4571)  M110     905.  18,606 ¦  1:35.09  231.! 3:12.34  237.! 3:40.17  240.!   27.43  280.! 5:05.51  226.!
  240. Corti Gianpaolo      61 Inverigo             Carreri                         5:55.26,6  2:01.46,5  (7761)  M110     916.  18,568 ¦  1:33.31  196.! 3:10.51  220.! 3:38.30  233.!   27.39  276.! 5:07.20  230.!
  241. Lodola Marco         60 Sestri Levante       GS A Biciclaeta                 5:56.01,0  2:02.20,9  (4043)  M110     920.  18,538 ¦  1:39.50  296.! 3:14.08  248.! 3:46.35  272.!   32.26  394.! 5:11.40  246.!
  242. Gerotetter Ulrich    64 D-Besigheim          RSV Besigheim                   5:56.52,1  2:03.12,0  (6082)  M110     926.  18,494 ¦  1:31.24  168.! 3:09.21  210.! 3:34.38  201.!   25.17  168.! 5:01.23  205.!
  243. Masoli Gianluca      62 Fidenza              S.C. AVIS Fiorenzuola d'Arda    5:56.56,7  2:03.16,6  (6791)  M110     927.  18,490 ¦  1:39.11  288.! 3:16.07  255.! 3:43.50  257.!   27.42  279.! 5:14.06  252.!
  244. Moneta Alfredo       63 I                    Velo Club Brianza               5:57.41,2  2:04.01,1   (587)  M110     932.  18,451 ¦  1:34.31  218.! 3:07.53  195.! 3:33.42  193.!   25.49  194.! 5:13.20  248.!
  245. Fantoni Renato       62 Cinisello Balsamo    Cons. Lombardo Amatoriale Pist  5:57.56,5  2:04.16,4  (2014)  M110     935.  18,438 ¦  1:35.31  239.! 3:13.38  244.! 3:40.37  242.!   26.58  245.! 5:13.59  250.!
  246. Fechert Jens         63 D-Chemnitz                                           5:58.03,4  2:04.23,3  (6074)  M110     938.  18,432 ¦  1:36.07  252.! 3:18.41  270.! 3:44.51  264.!   26.10  203.! 5:09.58  239.!
  247. Fürsich Robert       60 D-Eichstätt          Roell Tri-Sport                 5:58.26,8  2:04.46,7  (4760)  M110     940.  18,412 ¦  1:39.49  295.! 3:19.30  276.! 3:46.57  274.!   27.27  269.! 5:08.31  235.!
  248. Rivani Luciano       59 Marina di Ravenna    GS Classense Ravenna            5:59.50,3  2:06.10,2  (3501)  M110     950.  18,341 ¦  1:35.10  232.! 3:12.17  232.! 3:40.46  244.!   28.28  313.! 5:13.36  249.!
  249. Fratti Stefano       63 Formigine MO         AC Serramazzoni                 5:59.59,1  2:06.19,0  (8058)  M110     951.  18,334 ¦  1:38.04  280.! 3:23.38  294.! 3:47.34  276.!   23.55  108.! 5:14.00  251.!
  250. Sieber Uwe           64 D-Chemnitz                                           6:00.06,7  2:06.26,6  (4895)  M110     952.  18,327 ¦  1:36.06  251.! 3:18.37  268.! 3:44.50  263.!   26.13  205.! 5:14.13  254.!
  251. Zettl Guido          62 D-Weißdorf           SCM Münchberg                   6:00.23,5  2:06.43,4  (2319)  M110     956.  18,313 ¦  1:35.23  235.! 3:03.47  169.! 3:34.27  200.!   30.39  360.! 5:15.05  255.!
  252. Fabi Roberto         64 Pesaro (PS)          G.S. Scavolini                  6:00.58,5  2:07.18,4  (6375)  M110     960.  18,283 ¦  1:32.00  178.! 3:07.37  192.! 3:35.49  212.!   28.11  300.! 5:11.51  247.!
  253. De Vaal Peter        59 NL-ZR LEIDEN                                         6:01.08,8  2:07.28,7  (2522)  M110     961.  18,275 ¦  1:33.47  203.! 3:10.53  221.! 3:38.20  232.!   27.27  270.! 5:16.58  260.!
  254. Savino Vito Nicola   60 Conversano           Libertas Holiday                6:01.16,4  2:07.36,3  (8308)  M110     962.  18,268 ¦  1:36.05  250.! 3:19.17  274.! 3:47.45  277.!   28.28  311.! 5:16.24  259.!
  255. Ferri Marco          63 Reggio Emilia        F.lli Vecchi                    6:01.35,6  2:07.55,5  (7202)  M110     964.  18,252 ¦  1:33.21  195.! 3:10.27  218.! 3:36.14  218.!   25.47  193.! 5:08.46  236.!
  256. Bussei Fabio         64 Carpi (MO)           Florio Team Velo Sport Carpi    6:02.44,5  2:09.04,4  (4602)  M110     976.  18,194 ¦  1:37.23  272.! 3:21.34  286.! 3:47.47  278.!   26.13  205.! 5:14.12  253.!
  257. Zanetti Alessandro   60 Modena               Virginia Team 1962              6:02.52,1  2:09.12,0  (7143)  M110     978.  18,188 ¦  1:41.03  306.! 3:24.27  297.! 3:53.12  299.!   28.45  321.! 5:17.07  261.!
  258. Galassi Gabriele     64 Gambettola (FO)      Pedale Gambettolese             6:03.34,2  2:09.54,1  (6567)  M110     988.  18,153 ¦  1:35.31  237.! 3:23.03  292.! 3:48.41  284.!   25.38  182.! 5:20.24  269.!
  259. Distler Klaus        61 D-Langensendalbach   SV Langensendelbach             6:04.02,8  2:10.22,7  (4143)  M110     992.  18,129 ¦  1:34.20  211.! 3:13.55  247.! 3:40.31  241.!   26.36  227.! 5:11.40  245.!
  260. Guidi Dario          59 Modena               Uisp provinciale                6:04.14,3  2:10.34,2  (7217)  M110     996.  18,120 ¦  1:35.31  238.! 3:16.55  260.! 3:43.47  256.!   26.51  241.! 5:17.39  262.!
  261. Maier Franco         59 Trieste (TS)         SC Gentlemen - Trieste          6:04.25,6  2:10.45,5  (4792)  M110     999.  18,110 ¦  1:36.33  262.! 3:20.46  281.! 3:48.55  286.!   28.09  297.! 5:21.02  273.!
  262. Muhvic Vlado         60 SLO-Hrastnik         KD Hrastnik                     6:04.55,6  2:11.15,5  (6922)  M110     1005. 18,085 ¦  1:34.52  224.! 3:13.37  243.! 3:41.33  248.!   27.55  288.! 5:11.32  243.!
  263. Köberle Michael      60 D-Bad Saulgau                                        6:05.02,9  2:11.22,8  (4196)  M110     1006. 18,079 ¦  1:41.00  304.! 3:18.03  265.! 3:46.33  271.!   28.29  315.! 5:22.43  282.!
  264. Cobelli Massimo      62 Sombreno             GS Speedy Sport Speedylonga     6:05.10,3  2:11.30,2  (7470)  M110     1007. 18,073 ¦  1:35.36  240.! 3:04.35  178.! 3:33.10  189.!   28.35  317.! 5:15.16  256.!
  265. Lupi Maurizio        60 Casalpusterlengo     US Acli Pedalecasalese          6:05.18,6  2:11.38,5  (7343)  M110     1010. 18,066 ¦  1:38.03  279.! 3:33.16  325.! 3:59.00  314.!   25.44  188.! 5:21.31  275.!
  266. Bignotti Roberto     59 Bresso               GS Circolo Giovanile Bresso     6:05.21,4  2:11.41,3  (3058)  M110     1011. 18,064 ¦  1:35.42  241.! 3:08.33  203.! 3:35.18  208.!   26.45  234.! 5:15.50  258.!
  267. Orsanigo Walter      63 Bellusco             Team Cicli Scirano              6:05.23,6  2:11.43,5  (7689)  M110     1012. 18,062 ¦  1:35.59  247.! 3:28.24  310.! 3:56.14  309.!   27.50  283.! 5:21.01  272.!
  268. Gottesleben Florian  63 D-Bienenbüttel                                       6:05.46,4  2:12.06,3  (2202)  M110     1016. 18,043 ¦  1:34.43  222.! 3:04.17  172.! 3:31.27  181.!   27.10  260.! 5:23.02  284.!
  269. Bribesneker Alois    61 D-Tannhausen                                         6:06.02,5  2:12.22,4  (7572)  M110     1020. 18,030 ¦  1:35.51  244.! 3:18.57  272.! 3:46.21  270.!   27.24  267.! 5:20.38  271.!
  270. Marcon Pierluigi     63 Campione d'Italia    Cantiere Nautico Donato Caldè   6:06.31,6  2:12.51,5  (3160)  M110     1025. 18,006 ¦  1:37.25  273.! 3:16.55  261.! 3:44.12  258.!   27.16  264.! 5:20.16  268.!
  271. Martinelli Marco     59 Bergamo              GS Valvole Record               6:06.42,4  2:13.02,3  (4511)  M110     1029. 17,998 ¦  1:35.07  230.! 3:19.21  275.! 3:47.18  275.!   27.57  289.! 5:19.50  265.!
  272. Krämer Mario         61 D-Obergriesheim      Radsportgruppe BSG - GKN        6:06.54,9  2:13.14,8  (6582)  M110     1031. 17,987 ¦  1:37.54  275.! 3:23.52  296.! 3:50.27  292.!   26.35  226.! 5:21.45  277.!
  273. Tedeschi Massimo     59 Praticello di Gattat Pedale Castelnovese MTB         6:06.55,5  2:13.15,4  (2320)  M110     1032. 17,987 ¦  1:41.02  305.! 3:28.44  313.! 3:55.31  305.!   26.46  237.! 5:22.13  280.!
  274. Grasselli Giovanni   64 Castelnovo Monti RE  Università del Pedale           6:07.01,6  2:13.21,5  (2153)  M110     1035. 17,982 ¦  1:34.33  219.! 3:13.37  242.! 3:41.03  245.!   27.26  268.! 5:15.37  257.!
  275. Fuchs Manfred        64 A-Gampern            Energie AG                      6:07.04,1  2:13.24,0  (6310)  M110     1036. 17,980 ¦  1:46.18  358.! 3:25.44  299.! 3:55.19  304.!   29.34  337.! 5:23.00  283.!
  276. Melegari Paolo       59 Noceto               GC Monta in Bici                6:07.12,5  2:13.32,4  (4808)  M110     1040. 17,973 ¦  1:41.58  320.! 3:20.16  279.! 3:48.15  279.!   27.58  292.! 5:25.13  290.!
  277. Ohlboth Stephan      63 A-Radfeld                                            6:07.40,5  2:14.00,4  (3191)  M110     1047. 17,950 ¦  1:43.29  330.! 3:23.02  291.! 3:52.13  294.!   29.10  328.! 5:21.27  274.!
  278. Pace Fabrizio        59 Trieste (TS)         SC Gentlemen - Trieste          6:08.13,4  2:14.33,3  (4831)  M110     1056. 17,923 ¦  1:42.57  327.! 3:21.25  285.! 3:48.34  282.!   27.09  257.! 5:23.16  285.!
  279. Hoffmann Wolfgang    60 D-Kressbronn         TV Kressbronn                   6:08.25,5  2:14.45,4  (3600)  M110     1057. 17,914 ¦  1:39.37  294.! 3:35.22  336.! 4:01.41  322.!   26.18  209.! 5:27.06  294.!
  280. Martini Fabio        62 Poggio Berni         G.S. Olimpia Nuova              6:09.41,9  2:16.01,8  (7063)  M110     1071. 17,852 ¦  1:34.36  220.! 3:09.18  208.! 3:37.17  224.!   27.58  291.! 5:18.14  264.!
  281. Merkle Karlheinz     61 D-Bad Wurzach        RV Eintürnen                    6:09.59,1  2:16.19,0  (6404)  M110     1072. 17,838 ¦  1:45.50  352.! 3:32.44  322.! 3:59.24  315.!   26.39  230.! 5:26.30  293.!
  282. Hochholzer Willi     62 D-Unterhaching       TSV Unterhaching                6:10.14,9  2:16.34,8  (6882)  M110     1074. 17,825 ¦  1:33.49  204.! 3:19.07  273.! 3:44.49  262.!   25.41  183.! 5:11.33  244.!
  283. Ghirardello Giancarl 61 Vicenza              SC Vicenza S. Pio X             6:10.17,2  2:16.37,1  (3479)  M110     1075. 17,824 ¦  1:44.32  345.! 3:35.34  338.! 4:03.45  330.!   28.10  298.! 5:29.31  302.!
  284. Perissinotto Valerio 59 Caorle               GS La Salute - S Giorgio        6:11.26,2  2:17.46,1  (5350)  M110     1085. 17,768 ¦  1:36.01  248.! 3:18.43  271.! 3:46.37  273.!   27.54  287.! 5:19.56  266.!
  285. Donato Gian Luca     61 Roma                 Petit Velo                      6:11.39,0  2:17.58,9   (114)  M110     1087. 17,758 ¦  1:36.45  266.! 3:21.48  287.! 3:48.49  285.!   27.01  251.! 5:18.13  263.!
  286. Foerst Hermann       60 D-Bergheim                                           6:11.41,4  2:18.01,3  (2737)  M110     1092. 17,756 ¦  1:40.18  299.! 3:20.56  282.! 3:49.20  287.!   28.24  307.! 5:20.09  267.!
  287. Peresson Renzo       61 Trieste (TS)         SC Gentlemen - Trieste          6:12.15,0  2:18.34,9  (4844)  M110     1097. 17,730 ¦  1:36.17  258.! 3:14.42  250.! 3:46.18  269.!   31.35  382.! 5:24.30  287.!
  288. Müller Christian     59 D-Cham               ASV Cham                        6:12.20,0  2:18.39,9  (7068)  M110     1099. 17,726 ¦  1:41.52  318.! 3:21.06  283.! 3:50.03  291.!   28.57  324.! 5:25.37  292.!
  289. Leoni Marco          59 Filo Argenta Ferrara G.C.Argentano                   6:12.20,7  2:18.40,6  (6584)  M110     1100. 17,725 ¦  1:37.05  269.! 3:26.38  302.! 3:53.05  298.!   26.27  216.! 5:22.30  281.!
  290. Wimmer Anton         61 D-Altötting          TV-Altötting                    6:12.25,0  2:18.44,9  (6248)  M110     1101. 17,722 ¦  1:38.05  281.! 3:28.18  309.! 3:55.13  301.!   26.54  244.! 5:27.23  295.!
  291. Grauner Dario        63 Gorizia              GS All Star Gorizia             6:13.01,2  2:19.21,1  (7485)  M110     1109. 17,693 ¦  1:48.15  374.! 3:22.01  288.! 3:50.03  290.!   28.01  293.! 5:21.37  276.!
  292. Bickel Patrick       64 CH-Brügg BE          Lech Angels                     6:13.25,7  2:19.45,6  (5151)  M110     1116. 17,674 ¦  1:39.31  292.! 3:23.51  295.! 3:49.22  288.!   25.31  179.! 5:20.35  270.!
  293. Mittelhammer Peter   62 D-Peiting            RC - 72 Peiting                 6:13.42,3  2:20.02,2  (5484)  M110     1119. 17,660 ¦  1:31.28  170.! 3:29.37  314.! 3:56.07  308.!   26.30  220.! 5:29.09  301.!
  294. Heinrich Alexander   63 D-Reutlingen         TSV Schmiden                    6:14.26,5  2:20.46,4  (2368)  M110     1125. 17,626 ¦  2:02.42  433.! 4:01.57  423.! 4:25.01  407.!   23.04   74.! 5:34.48  317.!
  295. Suran Sergio         60 Trieste (TS)         SC Gentlemen - Trieste          6:14.31,7  2:20.51,6  (4901)  M110     1126. 17,622 ¦  1:36.36  264.! 3:12.08  230.! 3:40.45  243.!   28.36  319.! 5:23.49  286.!
  296. Nadalutti Adriano    64 Cargnacco            UC Da Poldo                     6:14.53,5  2:21.13,4  (4631)  M110     1128. 17,605 ¦  1:35.59  246.! 3:19.49  277.! 3:46.17  268.!   26.28  217.! 5:27.41  296.!
  297. Menta Giuseppe       64 Salsomaggiore Terme  GC Monta in Bici                6:14.56,8  2:21.16,7  (4810)  M110     1129. 17,602 ¦  1:41.16  309.! 3:20.12  278.! 3:48.40  283.!   28.28  311.! 5:25.24  291.!
  298. Boggetto Maurizio    62 s.stefano belbo      S.c bikers canelli              6:15.40,5  2:22.00,4  (6029)  M110     1141. 17,568 ¦  1:44.00  336.! 3:38.00  346.! 4:06.40  340.!   28.40  320.! 5:28.49  299.!
  299. Montanaro Marco      64 Canelli              S.c bikers canelli              6:15.41,0  2:22.00,9  (6032)  M110     1142. 17,567 ¦  1:44.14  338.! 3:37.35  344.! 4:04.07  333.!   26.31  223.! 5:28.51  300.!
  300. Febo Aurelio         63 S.Giorgio di Livenza GS La Salute - S Giorgio        6:15.54,4  2:22.14,3  (6430)  M110     1144. 17,557 ¦  1:35.56  245.! 3:29.41  315.! 3:55.15  302.!   25.33  180.! 5:21.50  278.!
  301. Gargano Vincenzo     60 Monterotondo Stazion Polisportiva Atl. UISP Montero  6:17.11,3  2:23.31,2  (8067)  M110     1161. 17,497 ¦  1:38.31  285.! 3:20.38  280.! 3:49.52  289.!   29.14  329.! 5:24.44  288.!
  302. Naumann Matthias     61 D-Hamburg                                            6:17.26,1  2:23.46,0  (4333)  M110     1163. 17,486 ¦  1:36.29  259.! 3:17.07  262.! 3:44.13  259.!   27.06  254.! 5:30.47  305.!
  303. Foradori Giorgio     61 Trivignano           Polisportiva Arcobaleno         6:17.42,2  2:24.02,1  (4495)  M110     1168. 17,474 ¦  1:44.28  344.! 3:27.09  305.! 4:07.05  342.!   39.56  437.! 5:31.38  306.!
  304. Belliato Giuseppe    62 Trivignano VE        Polisportiva Arcobaleno         6:17.43,1  2:24.03,0  (4567)  M110     1169. 17,473 ¦  1:44.25  342.! 3:27.08  304.! 3:55.35  306.!   28.26  309.! 5:31.50  309.!
  305. Michieletto Massimo  60 Martellago           Polisportiva Arcobaleno         6:17.44,2  2:24.04,1  (4572)  M110     1171. 17,472 ¦     ----  ----! 3:27.40  307.! 3:55.38  307.!   27.57  290.! 5:24.57  289.!
  306. Cagnin Maurizio      60 Mestre (VE)          Polisportiva Arcobaleno         6:17.44,5  2:24.04,4  (4568)  M110     1172. 17,472 ¦  1:44.27  343.! 3:26.27  301.! 3:51.04  293.!   24.37  135.! 5:21.58  279.!
  307. Vollmer Ulrich       61 D-Remseck            RSV Besigheim                   6:17.47,4  2:24.07,3  (6123)  M110     1173. 17,470 ¦  1:41.23  312.! 3:25.49  300.! 3:56.50  311.!   31.01  369.! 5:31.39  307.!
  308. Nacca Luigi          59 Pignataro            Velo Club Vento Contrario       6:18.49,7  2:25.09,6  (4822)  M110     1188. 17,422 ¦  1:41.11  308.! 3:38.36  350.! 4:08.14  345.!   29.37  338.! 5:34.07  314.!
  309. Piazza Nicola        64 Bassano del Grappa   Joko Velamos Sportonic          6:19.51,9  2:26.11,8  (8303)  M110     1199. 17,374 ¦  2:19.55  442.! 3:54.09  403.! 4:19.37  387.!   25.27  175.! 5:38.47  323.!
  310. Donato Antonio       60 Casale sul Sile      G.S. DESE                       6:20.09,2  2:26.29,1  (7960)  M110     1204. 17,361 ¦  1:43.32  332.! 3:30.15  319.! 3:59.56  316.!   29.41  340.! 5:32.24  310.!
  311. Bonelli Marco        59 USA-TENAFLI NY       Century Club New York           6:20.24,4  2:26.44,3  (1861)  M110     1206. 17,349 ¦  1:37.58  277.! 3:27.21  306.! 4:00.48  320.!   33.26  408.! 5:27.49  297.!
  312. Fedato Giorgio       60 Follina              Cicloturistica Vittorio Veneto  6:20.56,2  2:27.16,1  (7477)  M110     1210. 17,325 ¦  1:41.27  313.! 3:18.37  268.! 3:46.16  267.!   27.39  275.! 5:30.26  303.!
  313. Mayr Wolfgang        59 D-Durach                                             6:21.07,8  2:27.27,7  (2864)  M110     1215. 17,316 ¦  1:34.02  207.! 3:12.00  229.! 3:39.54  238.!   27.53  286.! 5:32.50  311.!
  314. Keller Berndt        63 D-Frickingen                                         6:21.44,6  2:28.04,5  (4779)  M110     1221. 17,289 ¦  1:43.34  333.! 3:38.09  348.! 4:11.45  358.!   33.35  410.! 5:40.59  327.!
  315. Pascutti Marco       62 Aiello del Friuli    Roby Calzature                  6:21.48,6  2:28.08,5  (7903)  M110     1223. 17,286 ¦  1:49.06  381.! 3:23.31  293.! 3:53.04  297.!   29.33  336.! 5:28.38  298.!
  316. Brunner Johannes     62 D-Hamburg                                            6:22.06,3  2:28.26,2  (4129)  M110     1224. 17,272 ¦  1:41.04  307.! 3:28.16  308.! 3:56.25  310.!   28.08  296.! 5:37.05  322.!
  317. Toppan Giorgio       63 Nova Milanese        GS Circolo Giovanile Bresso     6:22.28,7  2:28.48,6  (3061)  M110     1231. 17,255 ¦  1:41.28  314.! 3:18.12  266.! 3:48.25  281.!   30.12  351.! 5:34.53  318.!
  318. Pironi Angelo        62 Guidizzolo           Cicloclub77guidizzolo           6:24.03,9  2:30.23,8  (3254)  M110     1243. 17,184 ¦  1:37.55  276.! 3:22.12  289.! 3:52.55  295.!   30.42  361.! 5:30.44  304.!
  319. Valerio Vincenzo Nic 61 bitritto (ba)        G.S.Gli Amici della Freccia de  6:24.06,6  2:30.26,5  (6983)  M110     1245. 17,182 ¦  1:39.32  293.! 3:17.42  263.! 3:45.24  265.!   27.41  278.! 5:34.48  316.!
  320. Mayrginther Thomas   64 D-Bruckmühl                                          6:25.19,4  2:31.39,3  (7150)  M110     1256. 17,128 ¦  1:43.56  335.! 3:39.00  351.! 4:09.15  349.!   30.15  352.! 5:40.49  325.!
  321. Barbieri Stefano     63 Bologna              S.C Sasso Marconi               6:25.25,0  2:31.44,9  (3176)  M110     1257. 17,124 ¦  1:46.49  361.! 3:33.40  330.! 4:02.07  323.!   28.27  310.! 5:33.38  313.!
  322. Marchiani Stefano    59 Langhirano           GS Pedale Val Parma             6:25.52,4  2:32.12,3  (3105)  M110     1259. 17,104 ¦  1:30.52  164.! 3:33.30  327.! 4:02.59  325.!   29.29  334.! 5:35.08  319.!
  323. Rotelli Stefano      60 Langhirano PR        Pedale Val Parma                6:25.52,8  2:32.12,7  (7921)  M110     1260. 17,103 ¦  1:42.48  324.! 3:33.31  328.! 4:03.21  329.!   29.49  343.! 5:35.11  320.!
  324. Bauer Florian        63 D-München            Lech Angels                     6:26.24,6  2:32.44,5  (5147)  M110     1266. 17,080 ¦  1:46.26  359.! 3:39.43  356.! 4:10.19  355.!   30.36  359.! 5:43.30  335.!
  325. Amato Luigi          63 Velletri             Olmo la biciclissima            6:26.55,9  2:33.15,8  (2310)  M110     1271. 17,057 ¦  1:58.07  424.! 3:54.47  404.! 4:19.26  384.!   24.39  138.! 5:44.12  336.!
  326. Rinderle Peter       61 D-Unterhaching                                       6:27.22,7  2:33.42,6  (3766)  M110     1274. 17,037 ¦  1:44.49  348.! 3:32.25  321.! 4:00.44  319.!   28.19  302.! 5:36.30  321.!
  327. Olivero Mario        61 San Martino Alfieri  Sensa Flen                      6:27.32,5  2:33.52,4  (4936)  M110     1278. 17,030 ¦  1:48.29  377.! 3:31.40  320.! 4:03.12  328.!   31.31  380.! 5:41.03  328.!
  328. Mascia Angelo        62 NETTUNO (RM)         A.S.BIKE DUEMILA                6:28.03,6  2:34.23,5  (6790)  M110     1282. 17,007 ¦  1:42.50  325.! 3:30.03  317.! 4:03.07  326.!   33.04  405.! 5:40.11  324.!
  329. Weninger Roland      64 A-Maria Enzerdorf                                    6:30.25,7  2:36.45,6  (4088)  M110     1301. 16,904 ¦  1:47.48  370.! 3:43.28  371.! 4:12.25  360.!   28.56  323.! 5:44.45  337.!
  330. Zoppi Andrea         59 Cerbaia              GC La Romola                    6:30.45,9  2:37.05,8  (2328)  M110     1305. 16,889 ¦  1:36.31  260.! 3:25.16  298.! 3:52.55  295.!   27.38  273.! 5:31.42  308.!
  331. Leinweber Ulrich     63 D-Holzhanser         Gruppo Leinweber                6:30.55,6  2:37.15,5  (4302)  M110     1306. 16,882 ¦  1:44.21  339.! 3:36.58  342.! 4:08.33  347.!   31.34  381.! 5:42.09  333.!
  332. Kieslinger Markus    63 D-Deggendorf                                         6:30.56,7  2:37.16,6  (3637)  M110     1307. 16,882 ¦  1:42.31  323.! 3:29.57  316.! 4:00.31  317.!   30.33  358.! 5:41.42  331.!
  333. Spanfelner Gerhard   63 D-Regensburg                                         6:31.39,5  2:37.59,4  (3784)  M110     1313. 16,851 ¦  1:40.24  301.! 3:48.06  383.! 4:16.28  372.!   28.22  304.! 5:41.13  330.!
  334. Nestrasil Rolf       60 D-Besigheim          RSV Besigheim  Punkt-8-Team     6:31.58,5  2:38.18,4  (6148)  M110     1316. 16,837 ¦  1:47.33  367.! 3:40.18  358.! 4:10.11  354.!   29.53  345.! 5:42.18  334.!
  335. Leitner Manfred      62 A-LINZ               ASKO Linz Steg                  6:31.59,9  2:38.19,8  (6901)  M110     1317. 16,836 ¦  1:49.19  383.! 3:41.05  362.! 4:09.41  350.!   28.36  318.! 5:46.48  345.!
  336. Zanchetta Fabio      63 Paese (TV)           SC S.Lazzaro                    6:32.55,9  2:39.15,8  (5337)  M110     1325. 16,796 ¦  1:46.50  362.! 3:43.13  369.! 4:13.24  364.!   30.10  350.! 5:46.52  346.!
  337. Kuipers Bert         62 NL-Apeldoorn         En Route                        6:33.14,0  2:39.33,9  (1214)  M110     1326. 16,783 ¦  1:41.21  311.! 3:28.31  311.! 3:56.52  312.!   28.21  303.! 5:33.05  312.!
  338. Förster Matthias     64 D-Chemnitz           Velofreunde Biker Chemnitz      6:33.45,0  2:40.04,9  (6862)  M110     1331. 16,761 ¦  1:40.02  297.! 3:13.48  246.! 3:44.16  260.!   30.28  355.! 5:50.13  351.!
  339. Leonelli Roberto     61 Castelnuovo Rangone  GS Ali Dorate                   6:34.08,3  2:40.28,2  (3447)  M110     1333. 16,745 ¦  1:43.37  334.! 3:35.01  335.! 4:07.36  343.!   32.35  397.! 5:45.16  339.!
  340. Bruschi Cesare       60 Cortemaggiore        GS Cortemaggiore                6:34.13,3  2:40.33,2  (7854)  M110     1335. 16,741 ¦  1:38.53  286.! 3:33.55  332.! 4:03.49  331.!   29.53  345.! 5:40.59  326.!
  341. Villazzi Claudio     59 Parma                GS Tecno Bici                   6:34.35,7  2:40.55,6  (6529)  M110     1341. 16,726 ¦  1:53.00  397.! 3:40.31  359.! 4:09.48  353.!   29.16  331.! 5:45.57  341.!
  342. Kammermayer Stefan   61 D-D-München                                          6:34.54,6  2:41.14,5  (2508)  M110     1345. 16,712 ¦  1:40.54  303.! 3:30.12  318.! 3:58.16  313.!   28.03  294.! 5:41.12  329.!
  343. Schmidt Olaf         64 D-Dresden                                            6:35.17,9  2:41.37,8  (7164)  M110     1350. 16,696 ¦  1:43.26  329.! 3:35.28  337.! 4:06.12  336.!   30.44  363.! 5:45.09  338.!
  344. Vrech Adriano        61 Turriaco GO          GS Roby Calzature               6:35.25,2  2:41.45,1  (4992)  M110     1352. 16,691 ¦  1:42.05  321.! 3:36.04  340.! 4:05.56  335.!   29.51  344.! 5:51.50  357.!
  345. Savoia Luca          59 Verona               Autoff. Cescatti Milani         6:36.34,6  2:42.54,5  (4161)  M110     1366. 16,642 ¦  1:49.32  384.! 3:33.01  324.! 4:01.17  321.!   28.16  301.! 5:41.45  332.!
  346. Knebel Mathias       63 D-Wangen             Metzeler - Sportgemeinschaft    6:37.42,1  2:44.02,0  (2780)  M110     1378. 16,595 ¦  1:54.06  404.! 3:42.11  365.! 4:11.54  359.!   29.42  341.! 5:46.13  343.!
  347. Guarnieri Giuliano   62 Merano               Cassa di Risparmio di Bolzano   6:37.56,1  2:44.16,0  (7214)  M110     1380. 16,585 ¦  1:41.57  319.! 3:26.48  303.! 3:53.55  300.!   27.07  255.! 5:34.25  315.!
  348. Scandiuzzi Fabrizio  64 Villorba (TV)        UC Villorba Cicli Barbon        6:39.05,2  2:45.25,1  (4883)  M110     1388. 16,537 ¦  1:44.51  349.! 3:37.20  343.! 4:06.22  337.!   29.01  325.! 5:49.17  350.!
  349. Vio Giuliano         63 I                    GS La Salute - S Giorgio        6:39.11,1  2:45.31,0  (5351)  M110     1389. 16,533 ¦  1:49.08  382.! 3:45.16  375.! 4:16.41  373.!   31.25  377.! 5:53.53  362.!
  350. Cabrini Carlo        62 Parma                Arci Toscanini                  6:39.23,3  2:45.43,2  (4695)  M110     1390. 16,525 ¦  1:42.51  326.! 3:33.54  331.! 4:03.52  332.!   29.57  347.! 5:46.43  344.!
  351. Klotz Emil           59 D-Markgröningen      RSV Besigheim                   6:40.50,2  2:47.10,1  (6096)  M110     1398. 16,465 ¦  1:40.10  298.! 4:00.02  416.! 4:24.17  399.!   24.14  115.! 5:48.35  348.!
  352. Ruggeri Marco        59 Vicenza              Bici Ambroveneto                6:41.05,5  2:47.25,4  (2298)  M110     1399. 16,455 ¦  1:42.26  322.! 3:32.52  323.! 4:03.09  327.!   30.17  353.! 5:45.57  340.!
  353. Rinne Frank          63 D-Bodnegg                                            6:41.45,3  2:48.05,2  (2428)  M110     1406. 16,427 ¦  1:55.34  412.! 3:43.51  373.! 4:14.01  370.!   30.09  349.! 5:53.03  360.!
  354. Marri Tiziano        61 Cognento (MO)        Pol. Cognentese                 6:41.46,4  2:48.06,3  (7351)  M110     1407. 16,427 ¦  1:44.21  340.! 3:37.47  345.! 4:09.43  351.!   31.55  384.! 5:51.39  355.!
  355. Casati Luigi         59 Verona               GC Olympus                      6:41.55,1  2:48.15,0  (3377)  M110     1409. 16,421 ¦  1:47.47  369.! 3:39.02  352.! 4:09.46  352.!   30.43  362.! 5:53.17  361.!
  356. Pozzi Ruggero        60 Melegnano            GS Cicloamatori Melegnano       6:42.17,5  2:48.37,4  (6225)  M110     1414. 16,406 ¦  1:50.50  391.! 3:33.18  326.! 4:05.28  334.!   32.10  389.! 5:56.38  369.!
  357. Fraccalanza Stefano  63 Padova               SC Cicli Berma                  6:42.28,2  2:48.48,1  (4754)  M110     1417. 16,398 ¦  1:44.41  346.! 3:42.14  366.! 4:13.28  367.!   31.14  374.! 5:46.09  342.!
  358. Prati Maurizio       64 Cesena (FO)          Cesena Trotto Cicli Neri        6:42.34,4  2:48.54,3  (7915)  M110     1418. 16,394 ¦  1:40.53  302.! 3:53.37  402.! 4:22.01  393.!   28.24  308.! 5:52.13  358.!
  359. Ploia Gianpaolo      62 Taneto di Gattatico  GS Avis Calerno                 6:43.33,6  2:49.53,5  (4851)  M110     1429. 16,354 ¦  1:53.43  401.! 3:42.03  364.! 4:13.03  362.!   30.59  367.! 5:54.10  363.!
  360. Pelger Friedo        59 FL-Triesen           VC Vaduz                        6:43.39,0  2:49.58,9  (3937)  M110     1431. 16,350 ¦  1:46.55  364.! 3:36.31  341.! 4:07.54  344.!   31.22  376.! 5:47.10  347.!
  361. Petrangeli Fausto    59 Morgano              GC Badoere                      6:43.48,1  2:50.08,0  (7697)  M110     1432. 16,344 ¦  1:55.30  410.! 3:45.25  376.! 4:17.41  378.!   32.16  390.! 5:55.17  364.!
  362. Giancola Marcello    63 Montalto di Castro   Polisportiva Montalto           6:43.58,5  2:50.18,4  (6766)  M110     1433. 16,337 ¦  1:48.06  371.! 3:34.57  334.! 4:06.28  338.!   31.31  379.! 5:48.55  349.!
  363. Schiavone Nicola     59 Campobasso           CICLO ENDAS CAMPOBASSO          6:44.08,6  2:50.28,5  (6965)  M110     1434. 16,330 ¦  1:48.39  378.! 3:51.48  398.! 4:24.57  403.!   33.09  406.! 5:56.33  368.!
  364. Vollmer Klaus        60 D-Kornwestheim       RSV Besigheim                   6:44.29,7  2:50.49,6  (6122)  M110     1437. 16,316 ¦  1:41.32  316.! 3:59.21  414.! 4:26.59  409.!   27.38  274.! 5:52.50  359.!
  365. Pasolini Giovanni    59 Capriano del Colle   Gruppo fitness palextra         6:45.31,2  2:51.51,1  (7370)  M110     1453. 16,275 ¦  1:48.20  375.! 3:47.15  380.! 4:19.56  388.!   32.40  398.! 5:56.07  365.!
  366. Abele Klaus          62 D-Schorndorf                                         6:45.56,8  2:52.16,7  (2969)  M110     1457. 16,258 ¦  1:49.01  380.! 3:41.24  363.! 4:14.11  371.!   32.47  400.! 5:51.05  353.!
  367. Kühnel Thomas        63 D-Lengfeld                                           6:46.49,4  2:53.09,3  (3658)  M110     1465. 16,223 ¦  1:43.32  331.! 3:22.53  290.! 3:55.16  303.!   32.23  393.! 5:50.45  352.!
  368. Schnabel Rainer      64 D-Altrip                                             6:47.15,8  2:53.35,7  (2411)  M110     1471. 16,205 ¦  1:46.12  357.! 3:38.07  347.! 4:08.29  346.!   30.22  354.! 5:51.16  354.!
  369. Finetti Fausto       60 Cento                Bar Martini                     6:47.36,9  2:53.56,8  (6175)  M110     1475. 16,191 ¦  1:45.24  350.! 3:40.56  361.! 4:13.24  364.!   32.27  395.! 5:58.28  372.!
  370. Sayami Hanz          59 D-Hasenmoor                                          6:49.59,7  2:56.19,6  (6607)  M110     1497. 16,097 ¦  1:49.54  386.! 3:44.14  374.! 4:17.17  376.!   33.02  404.! 5:59.39  374.!
  371. Barbieri Bruno       60 Iseo                 Team CBL Cicli Bettoni Costa    6:50.01,9  2:56.21,8  (3349)  M110     1498. 16,096 ¦  1:52.36  396.! 3:56.31  407.! 4:25.50  408.!   29.19  332.! 6:03.00  380.!
  372. Cini Fabrizio        60 Poggibonsi           Polisportiva S.Quirico Firenze  6:50.59,2  2:57.19,1  (7467)  M110     1507. 16,058 ¦  1:44.48  347.! 3:43.19  370.! 4:11.11  356.!   27.51  284.! 5:56.26  367.!
  373. Bernazzoli Alberto   63 Collecchio           GS Amatori Collecchio           6:51.18,1  2:57.38,0  (3337)  M110     1512. 16,046 ¦  1:41.16  310.! 3:33.33  329.! 4:02.56  324.!   29.23  333.! 6:01.28  377.!
  374. Melosi Giancarlo     63 Milano               GS Cicloamatori Melegnano       6:51.41,3  2:58.01,2  (6204)  M110     1514. 16,031 ¦  1:41.37  317.! 3:28.33  312.! 4:00.34  318.!   32.00  386.! 5:56.10  366.!
  375. Van Hasseln Michael  61 D-Voerde             EBGS Dinslaken                  6:53.00,5  2:59.20,4  (4418)  M110     1528. 15,980 ¦  1:44.23  341.! 3:35.56  339.! 4:08.45  348.!   32.49  401.! 6:04.01  381.!
  376. Vohrer Uwe           61 D-Tübingen                                           6:53.04,1  2:59.24,0  (4420)  M110     1530. 15,977 ¦  1:51.58  394.! 3:49.06  388.! 4:16.53  375.!   27.47  281.! 5:51.47  356.!
  377. Rüter Thomas         60 D-Weißenburg                                         6:53.51,1  3:00.11,0  (4372)  M110     1538. 15,947 ¦  1:50.33  388.! 3:34.07  333.! 4:06.37  339.!   32.29  396.! 5:59.37  373.!
  378. Alsleben Dietmar     63 D-Schorndorf                                         6:55.10,9  3:01.30,8  (4121)  M110     1548. 15,896 ¦  1:39.21  290.! 4:00.45  420.! 4:24.43  401.!   23.58  110.! 6:02.59  379.!
  379. Balestra Michele     59 Forlì                GS Sintesi 96                   6:55.37,4  3:01.57,3  (3327)  M110     1552. 15,879 ¦  1:57.24  421.! 4:00.13  418.! 4:28.37  412.!   28.23  305.! 6:08.40  393.!
  380. Knott Jürgen         59 D-Wolfratshausen     WSV Bad Tölz                    6:55.40,1  3:02.00,0  (6189)  M110     1554. 15,878 ¦  1:54.33  406.! 4:00.48  421.! 4:29.17  415.!   28.29  314.! 6:07.11  387.!
  381. Wahl Harald          60 D-Birkenheide        TSG Maxdorf                     6:55.40,8  3:02.00,7  (7444)  M110     1555. 15,877 ¦  2:03.38  435.! 4:04.07  430.! 4:36.27  426.!   32.19  391.! 6:06.58  386.!
  382. Mannella Rocco       60 Vercelli             VV.F Vercelli                   6:55.55,5  3:02.15,4  (6910)  M110     1558. 15,868 ¦  1:55.28  409.! 3:59.20  413.! 4:33.27  421.!   34.06  414.! 6:08.10  390.!
  383. Dumhard Herbert      59 D-Sulzbach-Rosenberg                                 6:56.09,6  3:02.29,5  (8046)  M110     1560. 15,859 ¦  1:49.44  385.! 3:49.13  389.! 4:18.52  381.!   29.38  339.! 5:58.21  371.!
  384. Spang Helmut         64 D-Grünsfeld                                          6:56.37,0  3:02.56,9  (6672)  M110     1564. 15,841 ¦  2:04.30  436.! 4:04.58  433.! 4:32.07  419.!   27.09  258.! 6:00.20  375.!
  385. Krieg Bernd          60 D-Zell               BSG Wehrawald                   6:56.47,1  3:03.07,0  (3624)  M110     1566. 15,835 ¦  1:56.30  419.! 3:53.11  400.! 4:23.15  398.!   30.04  348.! 6:04.31  383.!
  386. Zuffi Sergio         61 rastignano pianoro ( Team salieri gary fisher        6:57.54,8  3:04.14,7  (7545)  M110     1572. 15,792 ¦  1:48.28  376.! 3:39.25  354.! 4:13.55  369.!   34.29  416.! 6:04.55  384.!
  387. Kindermann Peter     61 D-Baldham                                            6:59.07,9  3:05.27,8  (6269)  M110     1579. 15,746 ¦  1:53.13  398.! 3:43.46  372.! 4:17.43  379.!   33.57  413.! 6:11.46  399.!
  388. Winter Christian     64 D-Höchstädt          SSV-Höchstädt                   6:59.09,4  3:05.29,3  (7949)  M110     1580. 15,745 ¦  1:54.56  407.! 3:51.05  395.! 4:21.55  391.!   30.49  366.! 6:00.51  376.!
  389. Daut Martin          61 D-Nuernberg                                          6:59.33,3  3:05.53,2  (6850)  M110     1583. 15,730 ¦  1:56.56  420.! 4:00.40  419.! 4:38.55  431.!   38.14  432.! 6:09.56  394.!
  390. Seimetz Ingo         64 D-Sigmarszell        Metzeler - Sportgemeinschaft    7:00.36,5  3:06.56,4  (2792)  M110     1593. 15,691 ¦  2:10.50  441.! 3:48.10  385.! 4:19.19  383.!   31.08  372.! 6:06.35  385.!
  391. Fuchs Ulrich         61 D-München            GS di Monaco                    7:00.58,9  3:07.18,8  (6079)  M110     1595. 15,677 ¦  1:37.44  274.! 3:39.32  355.! 4:11.35  357.!   32.02  387.! 6:11.09  398.!
  392. Gaenssle Volker      63 D-Stuttgart                                          7:01.10,9  3:07.30,8  (5411)  M110     1600. 15,670 ¦  1:46.03  354.! 3:55.16  405.! 4:24.22  400.!   29.06  327.! 6:07.38  389.!
  393. Gaenssle Stephan     63 D-Stuttgart                                          7:01.14,1  3:07.34,0  (2212)  M110     1601. 15,668 ¦  1:46.04  355.! 3:40.40  360.! 4:12.44  361.!   32.03  388.! 6:01.47  378.!
  394. Linzinger Stefan     63 D-Korb                                               7:01.30,4  3:07.50,3  (4307)  M110     1603. 15,658 ¦  1:47.04  365.! 4:02.13  424.! 4:28.58  414.!   26.44  233.! 6:11.56  401.!
  395. Ariotti Stefano      59 Rimini               Endas F.Benzi                   7:02.39,5  3:08.59,4  (5020)  M110     1609. 15,615 ¦  2:00.09  430.! 3:58.14  411.! 4:31.01  416.!   32.46  399.! 6:10.05  395.!
  396. Proli Roberto        60 Forlì                Dolce e Albana Doc              7:03.36,7  3:09.56,6  (4582)  M110     1625. 15,580 ¦  1:56.28  418.! 3:56.32  408.! 4:27.36  410.!   31.04  370.! 6:04.11  382.!
  397. Schüppel Frank       64 D-Chemnitz           Altenpfleger e.V.               7:04.22,3  3:10.42,2  (3180)  M110     1633. 15,552 ¦  1:55.14  408.! 4:02.33  426.! 4:33.42  422.!   31.08  373.! 6:18.18  411.!
  398. Sorg Max             59 D-Kressbronn                                         7:07.21,5  3:13.41,4  (4896)  M110     1655. 15,443 ¦  1:55.43  415.! 3:51.16  396.! 4:22.24  394.!   31.07  371.! 6:13.43  403.!
  399. Lüdecke Axel         64 D-Northeim                                           7:08.04,2  3:14.24,1  (2536)  M110     1660. 15,418 ¦  1:45.41  351.! 3:45.58  377.! 4:18.58  382.!   33.00  403.! 6:10.38  397.!
  400. Omenetto Antonio     60 Rubano               GS Veloci Mestrino              7:08.42,3  3:15.02,2  (4574)  M110     1666. 15,395 ¦  1:58.00  423.! 3:47.56  382.! 4:21.51  390.!   33.54  412.! 6:17.34  409.!
  401. Wolf Hartmut         59 D-Oberkochen                                         7:09.57,1  3:16.17,0  (4439)  M110     1678. 15,350 ¦  1:59.24  427.! 4:07.51  437.! 4:39.51  433.!   32.00  385.! 6:21.30  415.!
  402. Bergmann Johannes    63 D-Bernried           Lech Angels                     7:10.09,5  3:16.29,4  (5149)  M110     1679. 15,343 ¦  1:50.21  387.! 3:49.48  392.! 4:19.32  386.!   29.44  342.! 6:08.25  391.!
  403. Crasnich Marco       64 Monfalcone GO        G.S. Ciclo Club Trieste         7:11.05,7  3:17.25,6  (6559)  M110     1685. 15,309 ¦  1:48.44  379.! 3:39.50  357.! 4:13.27  366.!   33.37  411.! 6:16.29  408.!
  404. Carobbi Eros         59 Felina RE            Università del Pedale           7:11.07,6  3:17.27,5  (7585)  M110     1686. 15,308 ¦  1:43.19  328.! 3:38.15  349.! 4:13.54  368.!   35.38  422.! 6:07.33  388.!
  405. Severin Fulvio       62 Turriaco GO          Associazione Sportiva Ronchi    7:11.39,4  3:17.59,3  (4394)  M110     1693. 15,289 ¦  1:52.32  395.! 3:53.30  401.! 4:25.00  405.!   31.30  378.! 6:15.35  406.!
  406. Dellekönig Erhard    63 D-Landsberg          Lech Angels                     7:12.20,2  3:18.40,1  (5162)  M110     1696. 15,265 ¦  1:33.15  192.! 4:01.19  422.! 4:28.12  411.!   26.52  242.! 6:14.01  404.!
  407. Lotterio Franco      60 Roma                 GS Lazzaretti                   7:12.31,0  3:18.50,9  (7060)  M110     1698. 15,259 ¦  1:55.34  412.! 4:02.17  425.! 4:31.33  417.!   29.16  330.! 6:08.33  392.!
  408. Falciasecca Ferrucci 63 Fano                 G.S. Ciclistico CRAL Carifano   7:13.32,8  3:19.52,7  (6376)  M110     1702. 15,223 ¦  1:48.10  372.! 3:50.37  393.! 4:25.00  404.!   34.22  415.! 6:17.53  410.!
  409. Bartolucci Stefano   59 Fano                 GS Ciclitico Cral Carifano      7:13.34,0  3:19.53,9  (7843)  M110     1703. 15,222 ¦  1:45.56  353.! 3:49.15  390.! 4:25.00  406.!   35.45  424.! 6:15.34  405.!
  410. Ruggeri Marco        63 Carobbio degli Angel Soc. Cicli Gamba Telai Alan     7:14.20,2  3:20.40,1  (6958)  M110     1712. 15,195 ¦  1:38.55  287.! 3:46.26  379.! 4:13.05  363.!   26.38  228.! 5:57.03  370.!
  411. Saft Matthias        60 D                    RC Schnaittachtal               7:14.25,0  3:20.44,9  (8245)  M110     1713. 15,192 ¦  1:46.50  363.! 3:39.17  353.! 4:06.59  341.!   27.41  277.! 6:13.16  402.!
  412. Perinetti Andrea     60 Ivrea                                                7:14.52,6  3:21.12,5  (4845)  M110     1716. 15,176 ¦  1:47.40  368.! 3:48.08  384.! 4:19.27  385.!   31.18  375.! 6:10.28  396.!
  413. Offenberg Peter      60 D-Bobingen           Radteam Aichach 2000            7:15.10,1  3:21.30,0  (1637)  M110     1719. 15,166 ¦  1:46.06  356.! 3:50.59  394.! 4:21.31  389.!   30.32  357.! 6:15.59  407.!
  414. Boido Vittorio       60 Voghera              DLF - Voghera                   7:16.24,7  3:22.44,6  (6049)  M110     1728. 15,123 ¦  1:44.00  337.! 3:46.21  378.! 4:17.21  377.!   31.00  368.! 6:11.48  400.!
  415. Vyhlidal Jindrich    61 CZ-Kraslice                                          7:16.50,6  3:23.10,5  (8336)  M110     1732. 15,108 ¦  1:53.47  402.! 4:02.33  426.! 4:33.19  420.!   30.45  364.! 6:19.34  412.!
  416. Hinterseer Alfred    59 A-St. Martin bei Lof USV-Weißbach                    7:18.20,9  3:24.40,8  (3840)  M110     1740. 15,056 ¦  1:55.30  411.! 3:47.26  381.! 4:22.53  397.!   35.26  421.! 6:27.49  423.!
  417. Francini Paolo       62 Scarperia            Ferri Taglienti Scarperia       7:18.25,3  3:24.45,2  (7617)  M110     1741. 15,054 ¦  1:50.45  390.! 3:51.47  397.! 4:24.57  402.!   33.09  407.! 6:23.41  417.!
  418. Ariatta Alberto      61 Milano (MI)          Atletica '85                    7:19.01,7  3:25.21,6  (3079)  M110     1744. 15,033 ¦  1:50.35  389.! 3:42.47  368.! 4:21.58  392.!   39.10  435.! 6:23.40  416.!
  419. Stocker Roland       61 D-Friedrichshafen                                    7:19.28,8  3:25.48,7  (3819)  M110     1747. 15,017 ¦  2:06.56  437.! 4:18.58  442.! 4:53.42  439.!   34.44  418.! 6:24.51  419.!
  420. Ciano Giuseppe       60 Salerno              GS C. Salernitana "Nicola Roma  7:19.46,2  3:26.06,1  (6649)  M110     1750. 15,007 ¦  1:55.55  416.! 4:05.36  434.! 4:37.58  429.!   32.22  392.! 6:24.34  418.!
  421. Petrucciani Mario    62 Campobasso           CICLO ENDAS CAMPOBASSO          7:21.02,3  3:27.22,2  (6797)  M110     1755. 14,964 ¦  1:58.45  425.! 3:51.49  399.! 4:28.44  413.!   36.55  428.! 6:26.56  422.!
  422. Ruhl Matthias        64 D-Pohlheim           SV Garbenteich                  7:21.07,7  3:27.27,6  (2315)  M110     1756. 14,961 ¦  1:53.18  399.! 3:42.16  367.! 4:16.50  374.!   34.33  417.! 6:21.13  413.!
  423. Strohbehn Jürgen     59 D-Lorch              TV Lorch                        7:21.14,0  3:27.33,9  (3814)  M110     1757. 14,958 ¦  1:59.22  426.! 4:00.07  417.! 4:35.49  425.!   35.42  423.! 6:25.51  421.!
  424. Ruggero Lorenzo      59 Padova               GS Veneto                       7:22.11,1  3:28.31,0  (7922)  M110     1765. 14,925 ¦  1:51.51  393.! 3:48.55  387.! 4:22.31  395.!   33.35  409.! 6:25.45  420.!
  425. Visby Jeppe          64 D-Pohlheim                                           7:22.50,1  3:29.10,0  (2469)  M110     1771. 14,903 ¦  1:53.28  400.! 3:49.48  391.! 4:22.39  396.!   32.51  402.! 6:21.25  414.!
  426. Stech Frank          59 D-Koeln                                              7:23.11,9  3:29.31,8  (2311)  M110     1773. 14,891 ¦  1:55.38  414.! 3:59.26  415.! 4:38.16  430.!   38.49  433.! 6:29.23  425.!
  427. Penzeck Walter       59 D-Giengen Burgberg                                   7:27.03,4  3:33.23,3  (3725)  M110     1785. 14,763 ¦  1:51.03  392.! 4:07.03  436.! 4:38.56  432.!   31.52  383.! 6:32.11  427.!
  428. Kattan Dietmar       64 D-München            GS di Monaco                    7:28.13,0  3:34.32,9  (6095)  M110     1791. 14,725 ¦  1:57.48  422.! 4:02.35  428.! 4:37.23  428.!   34.47  419.! 6:31.48  426.!
  429. Hellwig Andreas      62 CH-Aesch             Die Rieteraner                  7:31.41,0  3:38.00,9  (2404)  M110     1797. 14,612 ¦  2:03.15  434.! 3:57.27  409.! 4:34.24  423.!   36.57  429.! 6:38.30  428.!
  430. Chiesa Vittorio      60 Casarile             GC F.Moser Milano               7:32.58,3  3:39.18,2  (6163)  M110     1800. 14,570 ¦  1:48.11  373.! 3:59.17  412.! 4:35.17  424.!   35.59  425.! 6:27.56  424.!
  431. Rausch Fred          64 D-Kelheim            RSC Kelheim                     7:33.57,6  3:40.17,5  (4355)  M110     1801. 14,538 ¦  2:02.36  432.! 4:14.38  440.! 4:54.29  441.!   39.50  436.! 6:44.47  432.!
  432. Merten Werner        60 D-Saarlouis                                          7:36.39,2  3:42.59,1  (2867)  M110     1811. 14,452 ¦  2:07.41  439.! 4:04.20  431.! 4:41.28  434.!   37.08  431.! 6:39.26  429.!
  433. Garnerone Diego      63 Rosta TO             GS Biscotti Sanganesi           7:45.51,9  3:52.11,8  (2680)  M110     1833. 14,167 ¦  1:56.13  417.! 4:04.47  432.! 4:51.43  438.!   46.55  441.! 6:42.02  431.!
  434. Steffen Ernst        60 D-Mengen             RSC Sigmaringen                 7:49.49,3  3:56.09,2  (2938)  M110     1837. 14,047 ¦  2:02.23  431.! 3:57.49  410.! 4:36.57  427.!   39.07  434.! 6:46.44  433.!
  435. Holeczek Frank       64 D-Krefeld            EBGS Dinslaken                  7:51.10,5  3:57.30,4  (4266)  M110     1840. 14,007 ¦  2:08.51  440.! 4:15.04  441.! 4:51.08  437.!   36.04  426.! 6:53.32  436.!
  436. Kirst Lino           63 D-Waakirchen                                         7:51.40,8  3:58.00,7  (3621)  M110     1841. 13,992 ¦  1:47.14  366.! 3:55.18  406.! 4:31.51  418.!   36.33  427.! 6:51.01  435.!
  437. Weindl Josef         61 D-Schrobenhausen     Radteam Aichach 2000            7:53.20,0  3:59.39,9  (1654)  M110     1848. 13,943 ¦  1:54.31  405.! 4:06.27  435.! 4:43.35  435.!   37.07  430.! 6:50.38  434.!
  438. Pfarr Holger         60 D-Sulzfeld                                           7:57.02,0  4:03.21,9  (2886)  M110     1849. 13,835 ¦  1:59.59  429.! 4:09.54  438.! 4:51.03  436.!   41.09  438.! 6:56.31  437.!
  439. Frick Michael        59 D-Winnenden                                          8:00.22,2  4:06.42,1  (7869)  M110     1851. 13,739 ¦  1:46.48  360.! 4:03.44  429.!    ----  ----!    ----  ----! 6:40.38  430.!
  440. Bethge Robert        64 D-Ottobrunn          Lech Angels                     8:36.40,7  4:43.00,6  (5150)  M110     1859. 12,773 ¦  1:59.42  428.! 4:13.29  439.! 4:55.42  442.!   42.13  439.! 7:28.46  438.!
  441. Pancaldi Paolo       60 Bova (FE)                                            8:55.41,5  5:02.01,4  (7368)  M110     1860. 12,320 ¦  2:31.12  443.! 4:51.09  444.!    ----  ----!    ----  ----! 7:53.50  439.!
  442. Soppelsa Stefano     63 Rocca Pietore                                        2:37.44,6 Campolongo  (1306)  M110     1869.    --- ¦  1:09.47   10.! 2:17.29    8.! 2:37.44    8.!   20.14   17.!    ----  ----!
  443. Biocchi Gianluca     60 Salsomaggiore Terme  GC Monta in Bici                2:39.18,0 Campolongo  (7458)  M110     1870.    --- ¦     ----  ----!    ----  ----! 2:39.18   10.!    ----  ----!    ----  ----!
  444. Wegscheider Norbert  60 Montagna BZ          Bike Club Egna Neumarkt         3:11.46,4 Campolongo  (5286)  M110     1876.    --- ¦  1:26.28  122.! 2:47.52  107.! 3:11.46  105.!   23.54  107.!    ----  ----!
  445. Ouwerkerk Wilko      64 NL-Gorinchem 4207wk  Driebergse Tourclub             4:17.54,1 Campolongo  (2274)  M110     1884.    --- ¦  1:53.55  403.! 3:48.50  386.! 4:17.54  380.!   29.03  326.!    ----  ----!
  446. Manthey Niklas       64 D-München                                            4:54.26,1 Campolongo  (2614)  M110     1891.    --- ¦  2:06.56  438.! 4:18.59  443.! 4:54.26  440.!   35.26  420.!    ----  ----!
  ---  Negri Marco          60 Parma                                               squalifica      -----   (119)  M110              --- ¦  1:06.21  ----! 2:12.03  ----! 2:30.57  ----!   18.53  ----! 3:34.56  ----!
  ---  Piovan Luca          62 Casalserugo          Societa' Ciclisti Casalserugo  squalifica      -----  (8149)  M110              --- ¦     ----  ----!    ----  ----! 2:19.30  ----!    ----  ----! 4:20.16  ----!

Results, images and data are provided for personal use only. Commercial use, redistribution in whole or part, and/or reprinting is prohibited.